Wetterdaten: Montag, 04.05.2015
Datum Zeit Temp. Aussen +5cm Feuchte Auss Luftdruck Regen Sonnenschein Regendauer Solar Windben
04.05.2015 00:00 14,2 C 12,2 C 96 % 1004,2 hPa 0,0 l/m 0 min 0 min 0 W/m 14,6 km/h (3 Bft)
04.05.2015 00:02 14,2 C 12,2 C 96 % 1004,1 hPa 0,0 l/m 0 min 0 min 0 W/m 14,6 km/h (3 Bft)
04.05.2015 00:06 14,1 C 12,2 C 96 % 1004,2 hPa 0,0 l/m 0 min 0 min 0 W/m 14,6 km/h (3 Bft)
04.05.2015 00:08 14,1 C 12,2 C 96 % 1004,2 hPa 0,0 l/m 0 min 0 min 0 W/m 10,5 km/h (2 Bft)
04.05.2015 00:10 14,1 C 12,2 C 96 % 1004,4 hPa 0,0 l/m 0 min 0 min 0 W/m 10,5 km/h (2 Bft)
04.05.2015 00:12 14,1 C 12,2 C 96 % 1004,4 hPa 0,0 l/m 0 min 0 min 0 W/m 14,6 km/h (3 Bft)
04.05.2015 00:14 14,0 C 12,2 C 96 % 1004,4 hPa 0,0 l/m 0 min 0 min 0 W/m 8,4 km/h (2 Bft)
04.05.2015 00:16 14,0 C 12,2 C 96 % 1004,4 hPa 0,0 l/m 0 min 0 min 0 W/m 8,4 km/h (2 Bft)
04.05.2015 00:18 14,0 C 12,2 C 96 % 1004,5 hPa 0,0 l/m 0 min 0 min 0 W/m 8,4 km/h (2 Bft)
04.05.2015 00:20 14,0 C 12,2 C 96 % 1004,5 hPa 0,0 l/m 0 min 0 min 0 W/m 8,4 km/h (2 Bft)
04.05.2015 00:22 14,0 C 12,2 C 96 % 1004,5 hPa 0,0 l/m 0 min 0 min 0 W/m 14,6 km/h (3 Bft)
04.05.2015 00:24 14,0 C 12,2 C 96 % 1004,5 hPa 0,0 l/m 0 min 0 min 0 W/m 8,4 km/h (2 Bft)
04.05.2015 00:26 13,9 C 12,2 C 96 % 1004,5 hPa 0,0 l/m 0 min 0 min 0 W/m 10,5 km/h (2 Bft)
04.05.2015 00:28 13,9 C 12,2 C 96 % 1004,5 hPa 0,0 l/m 0 min 0 min 0 W/m 8,4 km/h (2 Bft)
04.05.2015 00:30 13,9 C 11,7 C 96 % 1004,5 hPa 0,0 l/m 0 min 0 min 0 W/m 6,3 km/h (2 Bft)
04.05.2015 00:32 13,9 C 11,7 C 96 % 1004,5 hPa 0,0 l/m 0 min 0 min 0 W/m 12,6 km/h (3 Bft)
04.05.2015 00:34 13,9 C 11,7 C 96 % 1004,6 hPa 0,0 l/m 0 min 0 min 0 W/m 10,5 km/h (2 Bft)
04.05.2015 00:36 13,9 C 11,7 C 96 % 1004,7 hPa 0,0 l/m 0 min 0 min 0 W/m 12,6 km/h (3 Bft)
04.05.2015 00:38 13,9 C 11,7 C 96 % 1004,7 hPa 0,0 l/m 0 min 0 min 0 W/m 6,3 km/h (2 Bft)
04.05.2015 00:40 13,9 C 12,2 C 96 % 1004,7 hPa 0,0 l/m 0 min 0 min 0 W/m 10,5 km/h (2 Bft)
04.05.2015 00:42 13,9 C 12,2 C 96 % 1004,7 hPa 0,0 l/m 0 min 0 min 0 W/m 12,6 km/h (3 Bft)
04.05.2015 00:44 13,9 C 12,2 C 96 % 1004,7 hPa 0,0 l/m 0 min 0 min 0 W/m 8,4 km/h (2 Bft)
04.05.2015 00:46 13,9 C 11,7 C 96 % 1004,7 hPa 0,0 l/m 0 min 0 min 0 W/m 8,4 km/h (2 Bft)
04.05.2015 00:48 13,9 C 12,2 C 96 % 1004,8 hPa 0,0 l/m 0 min 0 min 0 W/m 10,5 km/h (2 Bft)
04.05.2015 00:50 13,9 C 11,7 C 96 % 1004,7 hPa 0,0 l/m 0 min 0 min 0 W/m 12,6 km/h (3 Bft)
04.05.2015 00:52 13,9 C 11,7 C 96 % 1004,7 hPa 0,0 l/m 0 min 0 min 0 W/m 10,5 km/h (2 Bft)
04.05.2015 00:54 13,9 C 11,7 C 96 % 1004,7 hPa 0,0 l/m 0 min 0 min 0 W/m 14,6 km/h (3 Bft)
04.05.2015 00:56 13,9 C 11,7 C 96 % 1004,8 hPa 0,0 l/m 0 min 0 min 0 W/m 12,6 km/h (3 Bft)
04.05.2015 00:58 13,8 C 11,7 C 96 % 1004,8 hPa 0,0 l/m 0 min 0 min 0 W/m 6,3 km/h (2 Bft)
04.05.2015 01:00 13,9 C 11,7 C 96 % 1004,8 hPa 0,0 l/m 0 min 0 min 0 W/m 10,5 km/h (2 Bft)
04.05.2015 01:02 13,8 C 11,7 C 96 % 1004,8 hPa 0,0 l/m 0 min 0 min 0 W/m 6,3 km/h (2 Bft)
04.05.2015 01:04 13,8 C 11,7 C 96 % 1004,8 hPa 0,0 l/m 0 min 0 min 0 W/m 6,3 km/h (2 Bft)
04.05.2015 01:06 13,8 C 11,7 C 96 % 1004,8 hPa 0,0 l/m 0 min 0 min 0 W/m 8,4 km/h (2 Bft)
04.05.2015 01:08 13,8 C 11,7 C 96 % 1004,9 hPa 0,0 l/m 0 min 0 min 0 W/m 8,4 km/h (2 Bft)
04.05.2015 01:10 13,8 C 11,7 C 96 % 1004,9 hPa 0,0 l/m 0 min 0 min 0 W/m 8,4 km/h (2 Bft)
04.05.2015 01:12 13,8 C 11,7 C 96 % 1004,9 hPa 0,0 l/m 0 min 0 min 0 W/m 6,3 km/h (2 Bft)
04.05.2015 01:14 13,8 C 11,7 C 96 % 1004,9 hPa 0,0 l/m 0 min 0 min 0 W/m 6,3 km/h (2 Bft)
04.05.2015 01:16 13,8 C 11,7 C 96 % 1004,9 hPa 0,0 l/m 0 min 0 min 0 W/m 8,4 km/h (2 Bft)
04.05.2015 01:18 13,8 C 11,7 C 96 % 1004,9 hPa 0,0 l/m 0 min 0 min 0 W/m 6,3 km/h (2 Bft)
04.05.2015 01:20 13,8 C 11,7 C 96 % 1004,9 hPa 0,0 l/m 0 min 0 min 0 W/m 4,2 km/h (1 Bft)
04.05.2015 01:22 13,8 C 11,7 C 96 % 1004,9 hPa 0,0 l/m 0 min 0 min 0 W/m 4,2 km/h (1 Bft)
04.05.2015 01:24 13,8 C 11,7 C 96 % 1004,9 hPa 0,0 l/m 0 min 0 min 0 W/m 6,3 km/h (2 Bft)
04.05.2015 01:26 13,8 C 11,7 C 96 % 1004,9 hPa 0,0 l/m 0 min 0 min 0 W/m 4,2 km/h (1 Bft)
04.05.2015 01:28 13,8 C 11,7 C 96 % 1004,9 hPa 0,0 l/m 0 min 0 min 0 W/m 6,3 km/h (2 Bft)
04.05.2015 01:30 13,8 C 11,7 C 96 % 1005,0 hPa 0,0 l/m 0 min 0 min 0 W/m 6,3 km/h (2 Bft)
04.05.2015 01:32 13,8 C 11,7 C 96 % 1005,0 hPa 0,0 l/m 0 min 0 min 0 W/m 10,5 km/h (2 Bft)
04.05.2015 01:34 13,7 C 11,7 C 96 % 1005,1 hPa 0,0 l/m 0 min 0 min 0 W/m 8,4 km/h (2 Bft)
04.05.2015 01:36 13,7 C 11,7 C 96 % 1005,1 hPa 0,0 l/m 0 min 0 min 0 W/m 6,3 km/h (2 Bft)
04.05.2015 01:38 13,7 C 11,7 C 96 % 1005,1 hPa 0,0 l/m 0 min 0 min 0 W/m 8,4 km/h (2 Bft)
04.05.2015 01:40 13,7 C 11,7 C 96 % 1005,1 hPa 0,0 l/m 0 min 0 min 0 W/m 10,5 km/h (2 Bft)
04.05.2015 01:42 13,7 C 11,7 C 96 % 1005,2 hPa 0,0 l/m 0 min 0 min 0 W/m 10,5 km/h (2 Bft)
04.05.2015 01:44 13,7 C 11,7 C 96 % 1005,2 hPa 0,0 l/m 0 min 0 min 0 W/m 10,5 km/h (2 Bft)
04.05.2015 01:46 13,7 C 11,7 C 96 % 1005,2 hPa 0,0 l/m 0 min 0 min 0 W/m 12,6 km/h (3 Bft)
04.05.2015 01:48 13,6 C 11,7 C 96 % 1005,2 hPa 0,0 l/m 0 min 0 min 0 W/m 8,4 km/h (2 Bft)
04.05.2015 01:50 13,6 C 11,7 C 96 % 1005,2 hPa 0,0 l/m 0 min 0 min 0 W/m 6,3 km/h (2 Bft)
04.05.2015 01:52 13,6 C 11,7 C 96 % 1005,2 hPa 0,0 l/m 0 min 0 min 0 W/m 12,6 km/h (3 Bft)
04.05.2015 01:54 13,6 C 11,7 C 96 % 1005,2 hPa 0,0 l/m 0 min 0 min 0 W/m 10,5 km/h (2 Bft)
04.05.2015 01:56 13,6 C 11,7 C 96 % 1005,2 hPa 0,0 l/m 0 min 0 min 0 W/m 10,5 km/h (2 Bft)
04.05.2015 01:58 13,6 C 11,7 C 96 % 1005,2 hPa 0,0 l/m 0 min 0 min 0 W/m 12,6 km/h (3 Bft)
04.05.2015 02:00 13,6 C 11,7 C 96 % 1005,3 hPa 0,0 l/m 0 min 0 min 0 W/m 8,4 km/h (2 Bft)
04.05.2015 02:02 13,6 C 11,7 C 96 % 1005,3 hPa 0,0 l/m 0 min 0 min 0 W/m 10,5 km/h (2 Bft)
04.05.2015 02:04 13,6 C 11,7 C 96 % 1005,3 hPa 0,0 l/m 0 min 0 min 0 W/m 10,5 km/h (2 Bft)
04.05.2015 02:06 13,6 C 11,7 C 96 % 1005,2 hPa 0,0 l/m 0 min 0 min 0 W/m 8,4 km/h (2 Bft)
04.05.2015 02:08 13,6 C 11,7 C 96 % 1005,2 hPa 0,0 l/m 0 min 0 min 0 W/m 10,5 km/h (2 Bft)
04.05.2015 02:10 13,6 C 11,7 C 96 % 1005,3 hPa 0,0 l/m 0 min 0 min 0 W/m 12,6 km/h (3 Bft)
04.05.2015 02:12 13,6 C 11,7 C 96 % 1005,3 hPa 0,0 l/m 0 min 0 min 0 W/m 6,3 km/h (2 Bft)
04.05.2015 02:14 13,6 C 11,7 C 96 % 1005,3 hPa 0,0 l/m 0 min 0 min 0 W/m 8,4 km/h (2 Bft)
04.05.2015 02:16 13,6 C 11,7 C 96 % 1005,3 hPa 0,0 l/m 0 min 0 min 0 W/m 12,6 km/h (3 Bft)
04.05.2015 02:18 13,6 C 11,7 C 96 % 1005,4 hPa 0,0 l/m 0 min 0 min 0 W/m 12,6 km/h (3 Bft)
04.05.2015 02:20 13,6 C 11,7 C 96 % 1005,5 hPa 0,0 l/m 0 min 0 min 0 W/m 12,6 km/h (3 Bft)
04.05.2015 02:22 13,6 C 11,7 C 96 % 1005,5 hPa 0,0 l/m 0 min 0 min 0 W/m 12,6 km/h (3 Bft)
04.05.2015 02:24 13,6 C 11,7 C 96 % 1005,4 hPa 0,0 l/m 0 min 0 min 0 W/m 10,5 km/h (2 Bft)
04.05.2015 02:26 13,6 C 11,7 C 96 % 1005,4 hPa 0,0 l/m 0 min 0 min 0 W/m 12,6 km/h (3 Bft)
04.05.2015 02:28 13,6 C 11,7 C 96 % 1005,4 hPa 0,0 l/m 0 min 0 min 0 W/m 12,6 km/h (3 Bft)
04.05.2015 02:30 13,6 C 11,7 C 96 % 1005,5 hPa 0,0 l/m 0 min 0 min 0 W/m 14,6 km/h (3 Bft)
04.05.2015 02:32 13,6 C 11,7 C 96 % 1005,4 hPa 0,0 l/m 0 min 0 min 0 W/m 8,4 km/h (2 Bft)
04.05.2015 02:34 13,6 C 11,7 C 96 % 1005,5 hPa 0,0 l/m 0 min 0 min 0 W/m 6,3 km/h (2 Bft)
04.05.2015 02:36 13,6 C 11,7 C 96 % 1005,5 hPa 0,0 l/m 0 min 0 min 0 W/m 10,5 km/h (2 Bft)
04.05.2015 02:38 13,6 C 11,7 C 96 % 1005,5 hPa 0,0 l/m 0 min 0 min 0 W/m 12,6 km/h (3 Bft)
04.05.2015 02:40 13,6 C 11,7 C 96 % 1005,4 hPa 0,0 l/m 0 min 0 min 0 W/m 12,6 km/h (3 Bft)
04.05.2015 02:42 13,6 C 11,7 C 96 % 1005,5 hPa 0,0 l/m 0 min 0 min 0 W/m 12,6 km/h (3 Bft)
04.05.2015 02:44 13,6 C 11,7 C 96 % 1005,5 hPa 0,0 l/m 0 min 0 min 0 W/m 6,3 km/h (2 Bft)
04.05.2015 02:46 13,6 C 11,7 C 96 % 1005,5 hPa 0,0 l/m 0 min 0 min 0 W/m 8,4 km/h (2 Bft)
04.05.2015 02:48 13,6 C 11,7 C 96 % 1005,5 hPa 0,0 l/m 0 min 0 min 0 W/m 12,6 km/h (3 Bft)
04.05.2015 02:50 13,6 C 11,7 C 96 % 1005,6 hPa 0,0 l/m 0 min 0 min 0 W/m 6,3 km/h (2 Bft)
04.05.2015 02:52 13,6 C 11,7 C 96 % 1005,6 hPa 0,0 l/m 0 min 0 min 0 W/m 6,3 km/h (2 Bft)
04.05.2015 02:54 13,6 C 11,7 C 96 % 1005,5 hPa 0,0 l/m 0 min 0 min 0 W/m 6,3 km/h (2 Bft)
04.05.2015 02:56 13,6 C 11,7 C 96 % 1005,5 hPa 0,0 l/m 0 min 0 min 0 W/m 8,4 km/h (2 Bft)
04.05.2015 02:58 13,6 C 11,7 C 96 % 1005,5 hPa 0,0 l/m 0 min 0 min 0 W/m 6,3 km/h (2 Bft)
04.05.2015 03:00 13,6 C 11,7 C 96 % 1005,5 hPa 0,0 l/m 0 min 0 min 0 W/m 8,4 km/h (2 Bft)
04.05.2015 03:02 13,6 C 11,7 C 96 % 1005,5 hPa 0,0 l/m 0 min 0 min 0 W/m 8,4 km/h (2 Bft)
04.05.2015 03:04 13,6 C 11,7 C 96 % 1005,5 hPa 0,0 l/m 0 min 0 min 0 W/m 4,2 km/h (1 Bft)
04.05.2015 03:06 13,6 C 11,7 C 96 % 1005,6 hPa 0,0 l/m 0 min 0 min 0 W/m 6,3 km/h (2 Bft)
04.05.2015 03:08 13,6 C 11,7 C 96 % 1005,6 hPa 0,0 l/m 0 min 0 min 0 W/m 8,4 km/h (2 Bft)
04.05.2015 03:10 13,6 C 11,7 C 96 % 1005,6 hPa 0,0 l/m 0 min 0 min 0 W/m 6,3 km/h (2 Bft)
04.05.2015 03:12 13,6 C 11,7 C 96 % 1005,5 hPa 0,0 l/m 0 min 0 min 0 W/m 6,3 km/h (2 Bft)
04.05.2015 03:14 13,6 C 11,7 C 96 % 1005,5 hPa 0,0 l/m 0 min 0 min 0 W/m 6,3 km/h (2 Bft)
04.05.2015 03:16 13,6 C 11,7 C 96 % 1005,5 hPa 0,0 l/m 0 min 0 min 0 W/m 10,5 km/h (2 Bft)
04.05.2015 03:18 13,6 C 11,7 C 96 % 1005,5 hPa 0,0 l/m 0 min 0 min 0 W/m 10,5 km/h (2 Bft)
04.05.2015 03:20 13,6 C 11,7 C 96 % 1005,6 hPa 0,0 l/m 0 min 0 min 0 W/m 10,5 km/h (2 Bft)
04.05.2015 03:22 13,6 C 11,7 C 96 % 1005,6 hPa 0,0 l/m 0 min 0 min 0 W/m 10,5 km/h (2 Bft)
04.05.2015 03:24 13,6 C 11,7 C 96 % 1005,6 hPa 0,0 l/m 0 min 0 min 0 W/m 8,4 km/h (2 Bft)
04.05.2015 03:26 13,6 C 11,7 C 96 % 1005,6 hPa 0,0 l/m 0 min 0 min 0 W/m 8,4 km/h (2 Bft)
04.05.2015 03:28 13,6 C 11,7 C 96 % 1005,6 hPa 0,0 l/m 0 min 0 min 0 W/m 10,5 km/h (2 Bft)
04.05.2015 03:30 13,5 C 11,7 C 96 % 1005,6 hPa 0,0 l/m 0 min 0 min 0 W/m 12,6 km/h (3 Bft)
04.05.2015 03:32 13,5 C 11,7 C 96 % 1005,6 hPa 0,0 l/m 0 min 0 min 0 W/m 10,5 km/h (2 Bft)
04.05.2015 03:34 13,5 C 11,7 C 96 % 1005,6 hPa 0,0 l/m 0 min 0 min 0 W/m 8,4 km/h (2 Bft)
04.05.2015 03:36 13,5 C 11,7 C 96 % 1005,6 hPa 0,0 l/m 0 min 0 min 0 W/m 8,4 km/h (2 Bft)
04.05.2015 03:38 13,5 C 11,7 C 96 % 1005,6 hPa 0,0 l/m 0 min 0 min 0 W/m 8,4 km/h (2 Bft)
04.05.2015 03:40 13,5 C 11,7 C 96 % 1005,5 hPa 0,0 l/m 0 min 0 min 0 W/m 10,5 km/h (2 Bft)
04.05.2015 03:42 13,5 C 11,7 C 96 % 1005,5 hPa 0,0 l/m 0 min 0 min 0 W/m 12,6 km/h (3 Bft)
04.05.2015 03:44 13,5 C 11,7 C 96 % 1005,5 hPa 0,0 l/m 0 min 0 min 0 W/m 8,4 km/h (2 Bft)
04.05.2015 03:46 13,4 C 11,7 C 96 % 1005,5 hPa 0,0 l/m 0 min 0 min 0 W/m 4,2 km/h (1 Bft)
04.05.2015 03:48 13,4 C 11,7 C 96 % 1005,5 hPa 0,0 l/m 0 min 0 min 0 W/m 4,2 km/h (1 Bft)
04.05.2015 03:50 13,5 C 11,7 C 96 % 1005,4 hPa 0,0 l/m 0 min 0 min 0 W/m 8,4 km/h (2 Bft)
04.05.2015 03:52 13,4 C 11,7 C 96 % 1005,4 hPa 0,0 l/m 0 min 0 min 0 W/m 8,4 km/h (2 Bft)
04.05.2015 03:54 13,4 C 11,7 C 96 % 1005,5 hPa 0,0 l/m 0 min 0 min 0 W/m 8,4 km/h (2 Bft)
04.05.2015 03:56 13,4 C 11,7 C 96 % 1005,5 hPa 0,0 l/m 0 min 0 min 0 W/m 4,2 km/h (1 Bft)
04.05.2015 03:58 13,4 C 11,7 C 96 % 1005,4 hPa 0,0 l/m 0 min 0 min 0 W/m 6,3 km/h (2 Bft)
04.05.2015 04:00 13,4 C 11,7 C 96 % 1005,5 hPa 0,0 l/m 0 min 0 min 0 W/m 6,3 km/h (2 Bft)
04.05.2015 04:02 13,4 C 11,7 C 96 % 1005,5 hPa 0,0 l/m 0 min 0 min 0 W/m 8,4 km/h (2 Bft)
04.05.2015 04:04 13,4 C 11,7 C 96 % 1005,5 hPa 0,0 l/m 0 min 0 min 0 W/m 8,4 km/h (2 Bft)
04.05.2015 04:06 13,4 C 11,7 C 96 % 1005,5 hPa 0,0 l/m 0 min 0 min 0 W/m 10,5 km/h (2 Bft)
04.05.2015 04:08 13,3 C 11,7 C 96 % 1005,6 hPa 0,0 l/m 0 min 0 min 0 W/m 10,5 km/h (2 Bft)
04.05.2015 04:10 13,3 C 11,7 C 96 % 1005,6 hPa 0,0 l/m 0 min 0 min 0 W/m 8,4 km/h (2 Bft)
04.05.2015 04:12 13,3 C 11,7 C 96 % 1005,6 hPa 0,0 l/m 0 min 0 min 0 W/m 10,5 km/h (2 Bft)
04.05.2015 04:14 13,3 C 11,7 C 96 % 1005,6 hPa 0,0 l/m 0 min 0 min 0 W/m 8,4 km/h (2 Bft)
04.05.2015 04:16 13,3 C 11,7 C 96 % 1005,5 hPa 0,0 l/m 0 min 0 min 0 W/m 10,5 km/h (2 Bft)
04.05.2015 04:18 13,3 C 11,7 C 96 % 1005,5 hPa 0,0 l/m 0 min 0 min 0 W/m 10,5 km/h (2 Bft)
04.05.2015 04:20 13,3 C 11,7 C 96 % 1005,5 hPa 0,0 l/m 0 min 0 min 0 W/m 6,3 km/h (2 Bft)
04.05.2015 04:22 13,3 C 11,7 C 96 % 1005,5 hPa 0,0 l/m 0 min 0 min 0 W/m 8,4 km/h (2 Bft)
04.05.2015 04:24 13,3 C 11,1 C 96 % 1005,5 hPa 0,0 l/m 0 min 0 min 0 W/m 6,3 km/h (2 Bft)
04.05.2015 04:26 13,3 C 11,1 C 96 % 1005,6 hPa 0,0 l/m 0 min 0 min 0 W/m 8,4 km/h (2 Bft)
04.05.2015 04:28 13,3 C 11,1 C 96 % 1005,6 hPa 0,0 l/m 0 min 0 min 0 W/m 10,5 km/h (2 Bft)
04.05.2015 04:30 13,2 C 11,1 C 96 % 1005,7 hPa 0,0 l/m 0 min 0 min 0 W/m 6,3 km/h (2 Bft)
04.05.2015 04:32 13,2 C 11,1 C 96 % 1005,7 hPa 0,0 l/m 0 min 0 min 0 W/m 8,4 km/h (2 Bft)
04.05.2015 04:34 13,2 C 11,7 C 96 % 1005,7 hPa 0,0 l/m 0 min 0 min 0 W/m 6,3 km/h (2 Bft)
04.05.2015 04:36 13,2 C 11,7 C 96 % 1005,7 hPa 0,0 l/m 0 min 0 min 0 W/m 8,4 km/h (2 Bft)
04.05.2015 04:38 13,2 C 11,7 C 96 % 1005,8 hPa 0,0 l/m 0 min 0 min 0 W/m 6,3 km/h (2 Bft)
04.05.2015 04:40 13,2 C 11,7 C 96 % 1005,7 hPa 0,0 l/m 0 min 2 min 0 W/m 8,4 km/h (2 Bft)
04.05.2015 04:42 13,2 C 11,7 C 96 % 1005,7 hPa 0,0 l/m 0 min 2 min 0 W/m 8,4 km/h (2 Bft)
04.05.2015 04:44 13,2 C 11,7 C 96 % 1005,8 hPa 0,0 l/m 0 min 2 min 0 W/m 8,4 km/h (2 Bft)
04.05.2015 04:46 13,2 C 11,7 C 96 % 1005,8 hPa 0,0 l/m 0 min 2 min 0 W/m 6,3 km/h (2 Bft)
04.05.2015 04:48 13,2 C 11,7 C 96 % 1005,9 hPa 0,0 l/m 0 min 2 min 0 W/m 6,3 km/h (2 Bft)
04.05.2015 04:50 13,2 C 11,7 C 96 % 1005,9 hPa 0,0 l/m 0 min 2 min 0 W/m 8,4 km/h (2 Bft)
04.05.2015 04:52 13,2 C 11,7 C 96 % 1005,9 hPa 0,0 l/m 0 min 2 min 0 W/m 8,4 km/h (2 Bft)
04.05.2015 04:54 13,2 C 11,7 C 96 % 1005,9 hPa 0,0 l/m 0 min 2 min 0 W/m 8,4 km/h (2 Bft)
04.05.2015 04:56 13,2 C 11,7 C 96 % 1005,9 hPa 0,0 l/m 0 min 2 min 0 W/m 14,6 km/h (3 Bft)
04.05.2015 04:58 13,2 C 11,7 C 96 % 1006,0 hPa 0,0 l/m 0 min 2 min 0 W/m 8,4 km/h (2 Bft)
04.05.2015 05:00 13,2 C 11,7 C 96 % 1006,0 hPa 0,0 l/m 0 min 2 min 0 W/m 10,5 km/h (2 Bft)
04.05.2015 05:02 13,2 C 11,7 C 96 % 1005,9 hPa 0,0 l/m 0 min 0 min 0 W/m 14,6 km/h (3 Bft)
04.05.2015 05:04 13,2 C 11,7 C 96 % 1006,0 hPa 0,0 l/m 0 min 0 min 0 W/m 12,6 km/h (3 Bft)
04.05.2015 05:06 13,2 C 11,7 C 96 % 1005,9 hPa 0,0 l/m 0 min 0 min 0 W/m 8,4 km/h (2 Bft)
04.05.2015 05:08 13,2 C 11,7 C 96 % 1006,0 hPa 0,0 l/m 0 min 0 min 0 W/m 10,5 km/h (2 Bft)
04.05.2015 05:10 13,2 C 11,7 C 96 % 1006,0 hPa 0,0 l/m 0 min 0 min 0 W/m 10,5 km/h (2 Bft)
04.05.2015 05:12 13,2 C 11,7 C 96 % 1006,0 hPa 0,0 l/m 0 min 0 min 0 W/m 10,5 km/h (2 Bft)
04.05.2015 05:14 13,2 C 11,7 C 96 % 1006,0 hPa 0,0 l/m 0 min 0 min 0 W/m 10,5 km/h (2 Bft)
04.05.2015 05:16 13,2 C 11,7 C 96 % 1006,0 hPa 0,0 l/m 0 min 0 min 0 W/m 6,3 km/h (2 Bft)
04.05.2015 05:18 13,2 C 11,7 C 96 % 1006,0 hPa 0,0 l/m 0 min 0 min 0 W/m 12,6 km/h (3 Bft)
04.05.2015 05:20 13,2 C 11,7 C 96 % 1006,0 hPa 0,0 l/m 0 min 0 min 0 W/m 10,5 km/h (2 Bft)
04.05.2015 05:22 13,2 C 11,7 C 96 % 1006,0 hPa 0,0 l/m 0 min 0 min 0 W/m 12,6 km/h (3 Bft)
04.05.2015 05:24 13,2 C 11,7 C 96 % 1006,0 hPa 0,0 l/m 0 min 0 min 0 W/m 8,4 km/h (2 Bft)
04.05.2015 05:26 13,2 C 11,7 C 96 % 1006,0 hPa 0,0 l/m 0 min 0 min 0 W/m 8,4 km/h (2 Bft)
04.05.2015 05:28 13,1 C 11,7 C 96 % 1006,0 hPa 0,0 l/m 0 min 0 min 0 W/m 8,4 km/h (2 Bft)
04.05.2015 05:30 13,2 C 11,7 C 96 % 1006,0 hPa 0,0 l/m 0 min 0 min 0 W/m 10,5 km/h (2 Bft)
04.05.2015 05:32 13,1 C 11,7 C 96 % 1006,0 hPa 0,0 l/m 0 min 0 min 0 W/m 8,4 km/h (2 Bft)
04.05.2015 05:34 13,1 C 11,7 C 96 % 1006,0 hPa 0,0 l/m 0 min 0 min 0 W/m 8,4 km/h (2 Bft)
04.05.2015 05:36 13,1 C 11,7 C 96 % 1006,0 hPa 0,0 l/m 0 min 0 min 0 W/m 8,4 km/h (2 Bft)
04.05.2015 05:38 13,1 C 11,7 C 96 % 1006,2 hPa 0,0 l/m 0 min 0 min 0 W/m 4,2 km/h (1 Bft)
04.05.2015 05:40 13,1 C 11,7 C 96 % 1006,1 hPa 0,0 l/m 0 min 0 min 0 W/m 6,3 km/h (2 Bft)
04.05.2015 05:42 13,1 C 11,7 C 96 % 1006,1 hPa 0,0 l/m 0 min 0 min 0 W/m 4,2 km/h (1 Bft)
04.05.2015 05:44 13,1 C 11,7 C 96 % 1006,1 hPa 0,0 l/m 0 min 0 min 0 W/m 6,3 km/h (2 Bft)
04.05.2015 05:46 13,1 C 11,7 C 96 % 1006,2 hPa 0,0 l/m 0 min 0 min 0 W/m 10,5 km/h (2 Bft)
04.05.2015 05:48 13,1 C 11,7 C 96 % 1006,1 hPa 0,0 l/m 0 min 0 min 0 W/m 8,4 km/h (2 Bft)
04.05.2015 05:50 13,1 C 11,7 C 96 % 1006,1 hPa 0,0 l/m 0 min 0 min 0 W/m 8,4 km/h (2 Bft)
04.05.2015 05:52 13,1 C 11,7 C 96 % 1006,1 hPa 0,0 l/m 0 min 0 min 0 W/m 16,7 km/h (3 Bft)
04.05.2015 05:54 13,1 C 11,7 C 96 % 1006,1 hPa 0,0 l/m 0 min 0 min 0 W/m 6,3 km/h (2 Bft)
04.05.2015 05:56 13,1 C 11,7 C 96 % 1006,2 hPa 0,0 l/m 0 min 0 min 0 W/m 6,3 km/h (2 Bft)
04.05.2015 05:58 13,1 C 11,7 C 96 % 1006,1 hPa 0,0 l/m 0 min 0 min 0 W/m 6,3 km/h (2 Bft)
04.05.2015 06:00 13,1 C 11,7 C 96 % 1006,1 hPa 0,0 l/m 0 min 0 min 0 W/m 8,4 km/h (2 Bft)
04.05.2015 06:02 13,1 C 11,7 C 96 % 1006,1 hPa 0,0 l/m 0 min 0 min 0 W/m 8,4 km/h (2 Bft)
04.05.2015 06:06 13,1 C 11,7 C 96 % 1006,1 hPa 0,0 l/m 0 min 0 min 0 W/m 8,4 km/h (2 Bft)
04.05.2015 06:08 13,1 C 11,7 C 96 % 1006,0 hPa 0,0 l/m 0 min 0 min 1 W/m 10,5 km/h (2 Bft)
04.05.2015 06:10 13,1 C 11,7 C 96 % 1006,1 hPa 0,0 l/m 0 min 0 min 5 W/m 8,4 km/h (2 Bft)
04.05.2015 06:12 13,1 C 11,7 C 96 % 1006,0 hPa 0,0 l/m 0 min 0 min 6 W/m 8,4 km/h (2 Bft)
04.05.2015 06:14 13,1 C 11,7 C 96 % 1006,1 hPa 0,0 l/m 0 min 0 min 7 W/m 10,5 km/h (2 Bft)
04.05.2015 06:16 13,1 C 11,7 C 96 % 1006,2 hPa 0,0 l/m 0 min 0 min 8 W/m 8,4 km/h (2 Bft)
04.05.2015 06:18 13,1 C 11,7 C 96 % 1006,2 hPa 0,0 l/m 0 min 0 min 10 W/m 10,5 km/h (2 Bft)
04.05.2015 06:20 13,1 C 11,7 C 96 % 1006,2 hPa 0,0 l/m 0 min 0 min 12 W/m 10,5 km/h (2 Bft)
04.05.2015 06:22 13,1 C 11,7 C 96 % 1006,2 hPa 0,0 l/m 0 min 0 min 12 W/m 10,5 km/h (2 Bft)
04.05.2015 06:24 13,1 C 11,7 C 96 % 1006,2 hPa 0,0 l/m 0 min 2 min 12 W/m 10,5 km/h (2 Bft)
04.05.2015 06:26 13,1 C 11,7 C 96 % 1006,2 hPa 0,0 l/m 0 min 2 min 13 W/m 12,6 km/h (3 Bft)
04.05.2015 06:28 13,1 C 11,7 C 96 % 1006,1 hPa 0,0 l/m 0 min 0 min 15 W/m 12,6 km/h (3 Bft)
04.05.2015 06:30 13,1 C 11,7 C 96 % 1006,1 hPa 0,0 l/m 0 min 0 min 16 W/m 10,5 km/h (2 Bft)
04.05.2015 06:32 13,1 C 11,7 C 96 % 1006,1 hPa 0,0 l/m 0 min 0 min 14 W/m 6,3 km/h (2 Bft)
04.05.2015 06:34 13,2 C 11,7 C 96 % 1006,1 hPa 0,0 l/m 0 min 0 min 16 W/m 10,5 km/h (2 Bft)
04.05.2015 06:36 13,2 C 11,7 C 96 % 1006,1 hPa 0,0 l/m 0 min 0 min 18 W/m 14,6 km/h (3 Bft)
04.05.2015 06:38 13,2 C 11,7 C 96 % 1006,2 hPa 0,0 l/m 0 min 0 min 21 W/m 20,9 km/h (4 Bft)
04.05.2015 06:40 13,2 C 11,7 C 96 % 1006,1 hPa 0,0 l/m 0 min 0 min 26 W/m 10,5 km/h (2 Bft)
04.05.2015 06:42 13,2 C 11,7 C 96 % 1006,2 hPa 0,0 l/m 0 min 0 min 28 W/m 10,5 km/h (2 Bft)
04.05.2015 06:44 13,2 C 11,7 C 97 % 1006,2 hPa 0,0 l/m 0 min 0 min 25 W/m 12,6 km/h (3 Bft)
04.05.2015 06:46 13,2 C 11,7 C 97 % 1006,1 hPa 0,0 l/m 0 min 0 min 30 W/m 10,5 km/h (2 Bft)
04.05.2015 06:48 13,2 C 11,7 C 97 % 1006,2 hPa 0,0 l/m 0 min 0 min 31 W/m 10,5 km/h (2 Bft)
04.05.2015 06:50 13,2 C 11,7 C 97 % 1006,3 hPa 0,0 l/m 0 min 0 min 30 W/m 14,6 km/h (3 Bft)
04.05.2015 06:52 13,2 C 11,1 C 97 % 1006,2 hPa 0,0 l/m 0 min 0 min 29 W/m 10,5 km/h (2 Bft)
04.05.2015 06:54 13,2 C 11,1 C 97 % 1006,2 hPa 0,0 l/m 0 min 0 min 30 W/m 18,8 km/h (3 Bft)
04.05.2015 06:56 13,2 C 11,1 C 97 % 1006,2 hPa 0,0 l/m 0 min 0 min 30 W/m 14,6 km/h (3 Bft)
04.05.2015 06:58 13,2 C 11,1 C 97 % 1006,3 hPa 0,0 l/m 0 min 0 min 32 W/m 12,6 km/h (3 Bft)
04.05.2015 07:00 13,1 C 11,1 C 97 % 1006,3 hPa 0,0 l/m 0 min 0 min 31 W/m 12,6 km/h (3 Bft)
04.05.2015 07:02 13,1 C 11,1 C 96 % 1006,2 hPa 0,0 l/m 0 min 0 min 30 W/m 14,6 km/h (3 Bft)
04.05.2015 07:04 13,1 C 11,1 C 96 % 1006,4 hPa 0,0 l/m 0 min 0 min 32 W/m 12,6 km/h (3 Bft)
04.05.2015 07:06 13,1 C 11,1 C 96 % 1006,3 hPa 0,0 l/m 0 min 0 min 32 W/m 16,7 km/h (3 Bft)
04.05.2015 07:08 13,1 C 11,1 C 96 % 1006,4 hPa 0,0 l/m 0 min 0 min 32 W/m 10,5 km/h (2 Bft)
04.05.2015 07:10 13,1 C 11,1 C 96 % 1006,4 hPa 0,0 l/m 0 min 0 min 37 W/m 6,3 km/h (2 Bft)
04.05.2015 07:12 13,1 C 11,1 C 96 % 1006,4 hPa 0,0 l/m 0 min 0 min 43 W/m 14,6 km/h (3 Bft)
04.05.2015 07:14 13,1 C 11,1 C 96 % 1006,4 hPa 0,0 l/m 0 min 0 min 58 W/m 14,6 km/h (3 Bft)
04.05.2015 07:16 13,1 C 11,1 C 96 % 1006,4 hPa 0,0 l/m 2 min 0 min 94 W/m 14,6 km/h (3 Bft)
04.05.2015 07:18 13,1 C 11,1 C 96 % 1006,5 hPa 0,0 l/m 2 min 0 min 101 W/m 16,7 km/h (3 Bft)
04.05.2015 07:20 13,1 C 11,1 C 96 % 1006,5 hPa 0,0 l/m 0 min 0 min 86 W/m 16,7 km/h (3 Bft)
04.05.2015 07:22 13,0 C 11,1 C 96 % 1006,4 hPa 0,0 l/m 2 min 0 min 101 W/m 16,7 km/h (3 Bft)
04.05.2015 07:24 13,0 C 11,1 C 96 % 1006,5 hPa 0,0 l/m 2 min 0 min 119 W/m 14,6 km/h (3 Bft)
04.05.2015 07:26 13,0 C 11,1 C 96 % 1006,5 hPa 0,0 l/m 2 min 0 min 118 W/m 16,7 km/h (3 Bft)
04.05.2015 07:28 13,0 C 11,1 C 96 % 1006,5 hPa 0,0 l/m 2 min 0 min 122 W/m 16,7 km/h (3 Bft)
04.05.2015 07:30 13,1 C 11,1 C 96 % 1006,5 hPa 0,0 l/m 2 min 0 min 123 W/m 16,7 km/h (3 Bft)
04.05.2015 07:32 13,1 C 11,1 C 96 % 1006,6 hPa 0,2 l/m 2 min 0 min 125 W/m 23,0 km/h (4 Bft)
04.05.2015 07:34 13,1 C 11,1 C 96 % 1006,7 hPa 0,0 l/m 2 min 0 min 132 W/m 18,8 km/h (3 Bft)
04.05.2015 07:36 13,1 C 11,1 C 96 % 1006,7 hPa 0,0 l/m 2 min 0 min 133 W/m 18,8 km/h (3 Bft)
04.05.2015 07:38 13,1 C 11,1 C 96 % 1006,6 hPa 0,0 l/m 2 min 0 min 140 W/m 20,9 km/h (4 Bft)
04.05.2015 07:40 13,1 C 11,1 C 96 % 1006,7 hPa 0,0 l/m 2 min 0 min 149 W/m 18,8 km/h (3 Bft)
04.05.2015 07:42 13,1 C 11,1 C 96 % 1006,8 hPa 0,0 l/m 2 min 0 min 164 W/m 25,1 km/h (4 Bft)
04.05.2015 07:44 13,2 C 11,7 C 96 % 1006,8 hPa 0,0 l/m 2 min 0 min 203 W/m 33,5 km/h (5 Bft)
04.05.2015 07:46 13,2 C 11,7 C 96 % 1006,9 hPa 0,0 l/m 2 min 0 min 249 W/m 18,8 km/h (3 Bft)
04.05.2015 07:48 13,2 C 11,7 C 96 % 1007,0 hPa 0,0 l/m 2 min 0 min 256 W/m 20,9 km/h (4 Bft)
04.05.2015 07:50 13,3 C 11,7 C 96 % 1007,0 hPa 0,0 l/m 2 min 0 min 221 W/m 25,1 km/h (4 Bft)
04.05.2015 07:52 13,3 C 11,7 C 96 % 1006,9 hPa 0,0 l/m 2 min 0 min 165 W/m 20,9 km/h (4 Bft)
04.05.2015 07:54 13,4 C 11,7 C 96 % 1006,9 hPa 0,0 l/m 2 min 0 min 143 W/m 14,6 km/h (3 Bft)
04.05.2015 07:56 13,4 C 11,7 C 96 % 1007,0 hPa 0,0 l/m 0 min 0 min 134 W/m 14,6 km/h (3 Bft)
04.05.2015 07:58 13,4 C 11,7 C 96 % 1007,1 hPa 0,0 l/m 0 min 0 min 124 W/m 25,1 km/h (4 Bft)
04.05.2015 08:00 13,4 C 11,7 C 96 % 1007,0 hPa 0,0 l/m 2 min 0 min 161 W/m 29,3 km/h (5 Bft)
04.05.2015 08:02 13,5 C 11,7 C 96 % 1007,2 hPa 0,0 l/m 2 min 0 min 149 W/m 27,2 km/h (4 Bft)
04.05.2015 08:04 13,5 C 11,7 C 96 % 1007,2 hPa 0,0 l/m 0 min 2 min 125 W/m 25,1 km/h (4 Bft)
04.05.2015 08:06 13,5 C 11,7 C 96 % 1007,3 hPa 0,0 l/m 0 min 0 min 118 W/m 20,9 km/h (4 Bft)
04.05.2015 08:08 13,5 C 11,7 C 95 % 1007,3 hPa 0,0 l/m 0 min 0 min 118 W/m 18,8 km/h (3 Bft)
04.05.2015 08:10 13,6 C 11,7 C 95 % 1007,3 hPa 0,0 l/m 0 min 0 min 134 W/m 14,6 km/h (3 Bft)
04.05.2015 08:12 13,6 C 11,7 C 95 % 1007,4 hPa 0,0 l/m 2 min 0 min 212 W/m 27,2 km/h (4 Bft)
04.05.2015 08:14 13,6 C 11,7 C 95 % 1007,5 hPa 0,0 l/m 2 min 2 min 232 W/m 23,0 km/h (4 Bft)
04.05.2015 08:16 13,6 C 11,7 C 95 % 1007,5 hPa 0,0 l/m 2 min 0 min 254 W/m 27,2 km/h (4 Bft)
04.05.2015 08:18 13,6 C 11,7 C 94 % 1007,5 hPa 0,0 l/m 2 min 0 min 259 W/m 25,1 km/h (4 Bft)
04.05.2015 08:20 13,6 C 11,7 C 94 % 1007,5 hPa 0,0 l/m 2 min 0 min 262 W/m 16,7 km/h (3 Bft)
04.05.2015 08:22 13,6 C 11,7 C 94 % 1007,5 hPa 0,0 l/m 2 min 0 min 256 W/m 18,8 km/h (3 Bft)
04.05.2015 08:24 13,7 C 11,7 C 94 % 1007,5 hPa 0,0 l/m 2 min 0 min 266 W/m 20,9 km/h (4 Bft)
04.05.2015 08:26 13,7 C 11,7 C 94 % 1007,5 hPa 0,0 l/m 2 min 0 min 271 W/m 25,1 km/h (4 Bft)
04.05.2015 08:28 13,7 C 11,7 C 94 % 1007,6 hPa 0,0 l/m 2 min 0 min 278 W/m 31,4 km/h (5 Bft)
04.05.2015 08:30 13,7 C 11,7 C 94 % 1007,6 hPa 0,0 l/m 2 min 0 min 284 W/m 27,2 km/h (4 Bft)
04.05.2015 08:32 13,7 C 11,7 C 93 % 1007,7 hPa 0,0 l/m 2 min 0 min 289 W/m 29,3 km/h (5 Bft)
04.05.2015 08:34 13,7 C 11,7 C 93 % 1007,7 hPa 0,0 l/m 2 min 0 min 294 W/m 25,1 km/h (4 Bft)
04.05.2015 08:36 13,8 C 11,7 C 93 % 1007,6 hPa 0,0 l/m 2 min 0 min 303 W/m 29,3 km/h (5 Bft)
04.05.2015 08:38 13,8 C 11,7 C 93 % 1007,6 hPa 0,0 l/m 2 min 0 min 269 W/m 23,0 km/h (4 Bft)
04.05.2015 08:40 13,8 C 11,7 C 93 % 1007,7 hPa 0,0 l/m 2 min 0 min 227 W/m 18,8 km/h (3 Bft)
04.05.2015 08:42 13,9 C 11,7 C 93 % 1007,7 hPa 0,0 l/m 0 min 0 min 169 W/m 29,3 km/h (5 Bft)
04.05.2015 08:44 13,9 C 11,7 C 93 % 1007,7 hPa 0,0 l/m 0 min 0 min 186 W/m 31,4 km/h (5 Bft)
04.05.2015 08:46 13,9 C 11,7 C 92 % 1007,7 hPa 0,0 l/m 2 min 0 min 227 W/m 23,0 km/h (4 Bft)
04.05.2015 08:48 13,9 C 11,7 C 92 % 1007,7 hPa 0,0 l/m 2 min 0 min 257 W/m 20,9 km/h (4 Bft)
04.05.2015 08:50 14,0 C 11,7 C 92 % 1007,7 hPa 0,0 l/m 2 min 0 min 277 W/m 20,9 km/h (4 Bft)
04.05.2015 08:52 14,0 C 11,7 C 92 % 1007,7 hPa 0,0 l/m 2 min 0 min 371 W/m 20,9 km/h (4 Bft)
04.05.2015 08:54 14,1 C 11,7 C 92 % 1007,7 hPa 0,0 l/m 2 min 0 min 367 W/m 14,6 km/h (3 Bft)
04.05.2015 08:56 14,2 C 11,7 C 92 % 1007,7 hPa 0,0 l/m 2 min 0 min 347 W/m 27,2 km/h (4 Bft)
04.05.2015 08:58 14,2 C 11,7 C 92 % 1007,6 hPa 0,0 l/m 2 min 0 min 396 W/m 25,1 km/h (4 Bft)
04.05.2015 09:00 14,2 C 11,7 C 91 % 1007,6 hPa 0,0 l/m 2 min 0 min 417 W/m 18,8 km/h (3 Bft)
04.05.2015 09:02 14,2 C 11,7 C 91 % 1007,6 hPa 0,0 l/m 2 min 0 min 390 W/m 23,0 km/h (4 Bft)
04.05.2015 09:04 14,2 C 11,7 C 91 % 1007,6 hPa 0,0 l/m 2 min 0 min 399 W/m 14,6 km/h (3 Bft)
04.05.2015 09:06 14,3 C 11,7 C 91 % 1007,7 hPa 0,0 l/m 2 min 0 min 408 W/m 18,8 km/h (3 Bft)
04.05.2015 09:08 14,4 C 12,2 C 91 % 1007,6 hPa 0,0 l/m 2 min 0 min 423 W/m 31,4 km/h (5 Bft)
04.05.2015 09:10 14,6 C 12,2 C 91 % 1007,7 hPa 0,0 l/m 2 min 0 min 465 W/m 16,7 km/h (3 Bft)
04.05.2015 09:12 14,7 C 12,2 C 91 % 1007,7 hPa 0,0 l/m 2 min 0 min 521 W/m 20,9 km/h (4 Bft)
04.05.2015 09:14 14,8 C 12,8 C 91 % 1007,7 hPa 0,0 l/m 2 min 0 min 476 W/m 20,9 km/h (4 Bft)
04.05.2015 09:16 14,8 C 12,8 C 91 % 1007,6 hPa 0,0 l/m 0 min 0 min 168 W/m 23,0 km/h (4 Bft)
04.05.2015 09:18 14,9 C 12,8 C 90 % 1007,8 hPa 0,0 l/m 0 min 0 min 182 W/m 18,8 km/h (3 Bft)
04.05.2015 09:20 15,0 C 12,8 C 90 % 1007,7 hPa 0,0 l/m 2 min 0 min 253 W/m 25,1 km/h (4 Bft)
04.05.2015 09:22 15,0 C 12,8 C 89 % 1007,7 hPa 0,0 l/m 2 min 0 min 251 W/m 20,9 km/h (4 Bft)
04.05.2015 09:24 15,1 C 12,8 C 89 % 1007,7 hPa 0,0 l/m 0 min 0 min 196 W/m 20,9 km/h (4 Bft)
04.05.2015 09:26 15,1 C 12,8 C 88 % 1007,6 hPa 0,0 l/m 0 min 0 min 176 W/m 27,2 km/h (4 Bft)
04.05.2015 09:28 15,1 C 12,8 C 88 % 1007,7 hPa 0,0 l/m 0 min 0 min 178 W/m 20,9 km/h (4 Bft)
04.05.2015 09:30 15,1 C 12,8 C 88 % 1007,7 hPa 0,0 l/m 0 min 0 min 209 W/m 18,8 km/h (3 Bft)
04.05.2015 09:32 15,2 C 12,8 C 88 % 1007,7 hPa 0,0 l/m 0 min 0 min 236 W/m 20,9 km/h (4 Bft)
04.05.2015 09:34 15,2 C 12,8 C 87 % 1007,7 hPa 0,0 l/m 0 min 0 min 222 W/m 25,1 km/h (4 Bft)
04.05.2015 09:36 15,2 C 12,8 C 87 % 1007,7 hPa 0,0 l/m 2 min 0 min 297 W/m 18,8 km/h (3 Bft)
04.05.2015 09:38 15,3 C 12,8 C 87 % 1007,8 hPa 0,0 l/m 2 min 0 min 304 W/m 16,7 km/h (3 Bft)
04.05.2015 09:40 15,3 C 13,3 C 87 % 1007,9 hPa 0,0 l/m 2 min 0 min 355 W/m 23,0 km/h (4 Bft)
04.05.2015 09:42 15,4 C 13,3 C 87 % 1007,8 hPa 0,0 l/m 2 min 0 min 280 W/m 25,1 km/h (4 Bft)
04.05.2015 09:44 15,4 C 13,3 C 87 % 1007,8 hPa 0,0 l/m 2 min 0 min 285 W/m 23,0 km/h (4 Bft)
04.05.2015 09:46 15,5 C 13,3 C 86 % 1007,9 hPa 0,0 l/m 0 min 0 min 216 W/m 20,9 km/h (4 Bft)
04.05.2015 09:48 15,5 C 12,8 C 86 % 1007,9 hPa 0,0 l/m 0 min 0 min 173 W/m 18,8 km/h (3 Bft)
04.05.2015 09:50 15,5 C 12,8 C 86 % 1007,9 hPa 0,0 l/m 0 min 0 min 187 W/m 12,6 km/h (3 Bft)
04.05.2015 09:52 15,6 C 13,3 C 86 % 1008,0 hPa 0,0 l/m 0 min 0 min 272 W/m 20,9 km/h (4 Bft)
04.05.2015 09:54 15,6 C 13,3 C 86 % 1008,0 hPa 0,0 l/m 2 min 0 min 281 W/m 20,9 km/h (4 Bft)
04.05.2015 09:56 15,6 C 13,3 C 86 % 1007,9 hPa 0,0 l/m 2 min 0 min 286 W/m 16,7 km/h (3 Bft)
04.05.2015 09:58 15,6 C 13,3 C 86 % 1007,9 hPa 0,0 l/m 2 min 0 min 295 W/m 18,8 km/h (3 Bft)
04.05.2015 10:00 15,7 C 13,3 C 86 % 1007,9 hPa 0,0 l/m 2 min 0 min 332 W/m 18,8 km/h (3 Bft)
04.05.2015 10:02 15,7 C 13,9 C 86 % 1008,0 hPa 0,0 l/m 2 min 0 min 305 W/m 16,7 km/h (3 Bft)
04.05.2015 10:04 15,8 C 13,9 C 86 % 1008,1 hPa 0,0 l/m 2 min 0 min 332 W/m 23,0 km/h (4 Bft)
04.05.2015 10:06 15,8 C 13,9 C 85 % 1008,1 hPa 0,0 l/m 2 min 0 min 333 W/m 18,8 km/h (3 Bft)
04.05.2015 10:08 15,9 C 13,9 C 85 % 1008,1 hPa 0,0 l/m 2 min 0 min 317 W/m 18,8 km/h (3 Bft)
04.05.2015 10:10 15,9 C 13,9 C 84 % 1008,1 hPa 0,0 l/m 2 min 0 min 347 W/m 18,8 km/h (3 Bft)
04.05.2015 10:12 15,9 C 13,9 C 84 % 1008,2 hPa 0,0 l/m 2 min 0 min 327 W/m 12,6 km/h (3 Bft)
04.05.2015 10:14 16,1 C 13,9 C 84 % 1008,2 hPa 0,0 l/m 2 min 0 min 391 W/m 25,1 km/h (4 Bft)
04.05.2015 10:16 16,1 C 13,9 C 84 % 1008,2 hPa 0,0 l/m 2 min 0 min 399 W/m 25,1 km/h (4 Bft)
04.05.2015 10:18 16,2 C 14,4 C 84 % 1008,2 hPa 0,0 l/m 2 min 0 min 611 W/m 14,6 km/h (3 Bft)
04.05.2015 10:20 16,2 C 14,4 C 84 % 1008,2 hPa 0,0 l/m 2 min 0 min 346 W/m 12,6 km/h (3 Bft)
04.05.2015 10:22 16,3 C 14,4 C 84 % 1008,2 hPa 0,0 l/m 2 min 0 min 320 W/m 23,0 km/h (4 Bft)
04.05.2015 10:24 16,3 C 14,4 C 84 % 1008,3 hPa 0,0 l/m 0 min 0 min 291 W/m 23,0 km/h (4 Bft)
04.05.2015 10:26 16,3 C 13,9 C 83 % 1008,3 hPa 0,0 l/m 0 min 0 min 219 W/m 25,1 km/h (4 Bft)
04.05.2015 10:28 16,3 C 13,9 C 83 % 1008,2 hPa 0,0 l/m 0 min 0 min 210 W/m 18,8 km/h (3 Bft)
04.05.2015 10:30 16,3 C 13,9 C 83 % 1008,3 hPa 0,0 l/m 0 min 0 min 198 W/m 18,8 km/h (3 Bft)
04.05.2015 10:32 16,2 C 13,9 C 82 % 1008,3 hPa 0,0 l/m 0 min 0 min 206 W/m 23,0 km/h (4 Bft)
04.05.2015 10:34 16,2 C 13,9 C 82 % 1008,3 hPa 0,0 l/m 0 min 0 min 213 W/m 27,2 km/h (4 Bft)
04.05.2015 10:36 16,1 C 13,9 C 82 % 1008,3 hPa 0,0 l/m 0 min 0 min 231 W/m 27,2 km/h (4 Bft)
04.05.2015 10:38 16,1 C 13,9 C 82 % 1008,3 hPa 0,0 l/m 0 min 0 min 243 W/m 25,1 km/h (4 Bft)
04.05.2015 10:40 16,0 C 13,9 C 82 % 1008,4 hPa 0,0 l/m 0 min 0 min 226 W/m 16,7 km/h (3 Bft)
04.05.2015 10:42 16,0 C 13,9 C 82 % 1008,4 hPa 0,0 l/m 0 min 0 min 200 W/m 23,0 km/h (4 Bft)
04.05.2015 10:44 16,0 C 13,9 C 82 % 1008,4 hPa 0,0 l/m 0 min 0 min 203 W/m 16,7 km/h (3 Bft)
04.05.2015 10:46 15,9 C 13,9 C 82 % 1008,5 hPa 0,0 l/m 0 min 0 min 219 W/m 18,8 km/h (3 Bft)
04.05.2015 10:48 15,9 C 13,9 C 83 % 1008,5 hPa 0,0 l/m 0 min 0 min 248 W/m 18,8 km/h (3 Bft)
04.05.2015 10:50 15,9 C 13,9 C 83 % 1008,6 hPa 0,0 l/m 0 min 0 min 225 W/m 20,9 km/h (4 Bft)
04.05.2015 10:52 15,9 C 13,9 C 83 % 1008,6 hPa 0,0 l/m 0 min 0 min 236 W/m 16,7 km/h (3 Bft)
04.05.2015 10:54 15,9 C 13,9 C 83 % 1008,6 hPa 0,0 l/m 0 min 0 min 252 W/m 14,6 km/h (3 Bft)
04.05.2015 10:56 15,9 C 13,9 C 83 % 1008,7 hPa 0,0 l/m 0 min 0 min 259 W/m 16,7 km/h (3 Bft)
04.05.2015 10:58 15,9 C 13,9 C 83 % 1008,5 hPa 0,0 l/m 0 min 0 min 251 W/m 16,7 km/h (3 Bft)
04.05.2015 11:00 15,9 C 13,9 C 83 % 1008,6 hPa 0,0 l/m 0 min 0 min 282 W/m 23,0 km/h (4 Bft)
04.05.2015 11:02 15,9 C 13,9 C 83 % 1008,7 hPa 0,0 l/m 2 min 0 min 342 W/m 20,9 km/h (4 Bft)
04.05.2015 11:04 16,0 C 14,4 C 83 % 1008,7 hPa 0,0 l/m 2 min 0 min 377 W/m 20,9 km/h (4 Bft)
04.05.2015 11:06 16,0 C 14,4 C 83 % 1008,8 hPa 0,0 l/m 2 min 0 min 399 W/m 20,9 km/h (4 Bft)
04.05.2015 11:08 16,1 C 14,4 C 82 % 1008,8 hPa 0,0 l/m 2 min 0 min 406 W/m 20,9 km/h (4 Bft)
04.05.2015 11:10 16,1 C 14,4 C 82 % 1008,7 hPa 0,0 l/m 2 min 0 min 422 W/m 14,6 km/h (3 Bft)
04.05.2015 11:12 16,2 C 15,0 C 83 % 1008,7 hPa 0,0 l/m 2 min 0 min 362 W/m 14,6 km/h (3 Bft)
04.05.2015 11:14 16,3 C 15,0 C 83 % 1008,8 hPa 0,0 l/m 2 min 0 min 364 W/m 20,9 km/h (4 Bft)
04.05.2015 11:16 16,3 C 15,0 C 83 % 1008,9 hPa 0,0 l/m 2 min 0 min 355 W/m 20,9 km/h (4 Bft)
04.05.2015 11:18 16,4 C 15,0 C 82 % 1008,9 hPa 0,0 l/m 2 min 0 min 372 W/m 25,1 km/h (4 Bft)
04.05.2015 11:20 16,4 C 15,0 C 82 % 1008,9 hPa 0,0 l/m 2 min 0 min 377 W/m 18,8 km/h (3 Bft)
04.05.2015 11:22 16,5 C 15,0 C 82 % 1008,9 hPa 0,0 l/m 2 min 0 min 363 W/m 20,9 km/h (4 Bft)
04.05.2015 11:24 16,6 C 15,0 C 82 % 1008,9 hPa 0,0 l/m 2 min 0 min 366 W/m 20,9 km/h (4 Bft)
04.05.2015 11:26 16,6 C 15,0 C 81 % 1008,9 hPa 0,0 l/m 0 min 0 min 332 W/m 12,6 km/h (3 Bft)
04.05.2015 11:28 16,6 C 15,0 C 81 % 1008,9 hPa 0,0 l/m 0 min 0 min 272 W/m 18,8 km/h (3 Bft)
04.05.2015 11:30 16,7 C 15,0 C 81 % 1008,9 hPa 0,0 l/m 0 min 0 min 275 W/m 14,6 km/h (3 Bft)
04.05.2015 11:32 16,7 C 15,0 C 81 % 1009,0 hPa 0,0 l/m 0 min 0 min 318 W/m 16,7 km/h (3 Bft)
04.05.2015 11:34 16,7 C 15,0 C 81 % 1009,0 hPa 0,0 l/m 2 min 0 min 379 W/m 18,8 km/h (3 Bft)
04.05.2015 11:36 16,8 C 15,0 C 81 % 1009,0 hPa 0,0 l/m 2 min 0 min 448 W/m 23,0 km/h (4 Bft)
04.05.2015 11:38 16,8 C 15,0 C 80 % 1008,9 hPa 0,0 l/m 2 min 0 min 410 W/m 20,9 km/h (4 Bft)
04.05.2015 11:40 16,8 C 15,0 C 79 % 1008,9 hPa 0,0 l/m 0 min 0 min 357 W/m 20,9 km/h (4 Bft)
04.05.2015 11:42 16,9 C 15,0 C 80 % 1008,9 hPa 0,0 l/m 2 min 0 min 380 W/m 20,9 km/h (4 Bft)
04.05.2015 11:44 16,9 C 15,0 C 79 % 1008,9 hPa 0,0 l/m 0 min 0 min 329 W/m 16,7 km/h (3 Bft)
04.05.2015 11:46 16,9 C 15,0 C 79 % 1008,9 hPa 0,0 l/m 0 min 0 min 294 W/m 16,7 km/h (3 Bft)
04.05.2015 11:48 16,9 C 15,0 C 79 % 1008,9 hPa 0,0 l/m 0 min 0 min 299 W/m 14,6 km/h (3 Bft)
04.05.2015 11:50 16,9 C 15,0 C 79 % 1009,0 hPa 0,0 l/m 0 min 0 min 305 W/m 25,1 km/h (4 Bft)
04.05.2015 11:52 17,0 C 15,0 C 79 % 1008,9 hPa 0,0 l/m 0 min 0 min 314 W/m 23,0 km/h (4 Bft)
04.05.2015 11:54 17,0 C 15,0 C 79 % 1008,9 hPa 0,0 l/m 2 min 0 min 381 W/m 20,9 km/h (4 Bft)
04.05.2015 11:56 17,1 C 15,0 C 78 % 1008,8 hPa 0,0 l/m 2 min 0 min 433 W/m 23,0 km/h (4 Bft)
04.05.2015 11:58 17,1 C 15,6 C 79 % 1008,9 hPa 0,0 l/m 2 min 0 min 430 W/m 12,6 km/h (3 Bft)
04.05.2015 12:00 17,2 C 15,6 C 79 % 1008,9 hPa 0,0 l/m 2 min 0 min 411 W/m 14,6 km/h (3 Bft)
04.05.2015 12:02 17,2 C 15,6 C 79 % 1008,9 hPa 0,0 l/m 2 min 0 min 395 W/m 16,7 km/h (3 Bft)
04.05.2015 12:06 17,3 C 15,6 C 78 % 1008,8 hPa 0,0 l/m 2 min 0 min 425 W/m 27,2 km/h (4 Bft)
04.05.2015 12:08 17,3 C 15,6 C 76 % 1008,7 hPa 0,0 l/m 2 min 0 min 462 W/m 20,9 km/h (4 Bft)
04.05.2015 12:10 17,4 C 15,6 C 76 % 1008,8 hPa 0,0 l/m 2 min 0 min 441 W/m 14,6 km/h (3 Bft)
04.05.2015 12:12 17,4 C 15,6 C 77 % 1008,8 hPa 0,0 l/m 2 min 0 min 416 W/m 14,6 km/h (3 Bft)
04.05.2015 12:14 17,5 C 15,6 C 76 % 1008,9 hPa 0,0 l/m 2 min 0 min 433 W/m 20,9 km/h (4 Bft)
04.05.2015 12:16 17,5 C 15,6 C 75 % 1008,8 hPa 0,0 l/m 2 min 0 min 414 W/m 25,1 km/h (4 Bft)
04.05.2015 12:18 17,5 C 15,6 C 75 % 1008,8 hPa 0,0 l/m 2 min 0 min 431 W/m 18,8 km/h (3 Bft)
04.05.2015 12:20 17,5 C 15,6 C 75 % 1008,8 hPa 0,0 l/m 2 min 0 min 486 W/m 25,1 km/h (4 Bft)
04.05.2015 12:22 17,6 C 15,6 C 75 % 1008,8 hPa 0,0 l/m 2 min 0 min 501 W/m 18,8 km/h (3 Bft)
04.05.2015 12:24 17,7 C 16,1 C 76 % 1008,6 hPa 0,0 l/m 2 min 0 min 486 W/m 14,6 km/h (3 Bft)
04.05.2015 12:26 17,7 C 16,1 C 75 % 1008,7 hPa 0,0 l/m 2 min 0 min 467 W/m 20,9 km/h (4 Bft)
04.05.2015 12:28 17,7 C 16,1 C 75 % 1008,7 hPa 0,0 l/m 2 min 0 min 529 W/m 18,8 km/h (3 Bft)
04.05.2015 12:30 17,8 C 16,1 C 75 % 1008,6 hPa 0,0 l/m 2 min 0 min 680 W/m 18,8 km/h (3 Bft)
04.05.2015 12:32 17,9 C 16,1 C 74 % 1008,6 hPa 0,0 l/m 2 min 0 min 612 W/m 23,0 km/h (4 Bft)
04.05.2015 12:34 17,9 C 16,7 C 74 % 1008,6 hPa 0,0 l/m 2 min 0 min 722 W/m 23,0 km/h (4 Bft)
04.05.2015 12:36 18,1 C 16,7 C 74 % 1008,5 hPa 0,0 l/m 2 min 0 min 1026 W/m 16,7 km/h (3 Bft)
04.05.2015 12:38 18,2 C 16,7 C 73 % 1008,6 hPa 0,0 l/m 2 min 0 min 444 W/m 16,7 km/h (3 Bft)
04.05.2015 12:40 18,2 C 16,7 C 73 % 1008,6 hPa 0,0 l/m 2 min 0 min 483 W/m 16,7 km/h (3 Bft)
04.05.2015 12:45 18,5 C 16,7 C 73 % 1008,6 hPa 0,0 l/m 2 min 0 min 414 W/m 25,1 km/h (4 Bft)
04.05.2015 12:50 18,5 C 16,1 C 70 % 1008,6 hPa 0,0 l/m 0 min 0 min 377 W/m 27,2 km/h (4 Bft)
04.05.2015 12:55 18,5 C 16,1 C 71 % 1008,6 hPa 0,0 l/m 0 min 0 min 326 W/m 18,8 km/h (3 Bft)
04.05.2015 13:00 18,4 C 15,6 C 70 % 1008,7 hPa 0,0 l/m 0 min 0 min 294 W/m 25,1 km/h (4 Bft)
04.05.2015 13:05 18,3 C 15,6 C 71 % 1008,6 hPa 0,0 l/m 0 min 0 min 346 W/m 16,7 km/h (3 Bft)
04.05.2015 13:10 18,3 C 16,1 C 73 % 1008,5 hPa 0,0 l/m 0 min 0 min 368 W/m 23,0 km/h (4 Bft)
04.05.2015 13:15 18,4 C 16,7 C 72 % 1008,6 hPa 0,0 l/m 2 min 0 min 399 W/m 18,8 km/h (3 Bft)
04.05.2015 13:20 18,7 C 16,7 C 72 % 1008,6 hPa 0,0 l/m 2 min 0 min 506 W/m 25,1 km/h (4 Bft)
04.05.2015 13:25 18,9 C 17,8 C 72 % 1008,6 hPa 0,0 l/m 2 min 0 min 889 W/m 20,9 km/h (4 Bft)
04.05.2015 13:30 19,2 C 17,8 C 70 % 1008,6 hPa 0,0 l/m 2 min 0 min 568 W/m 31,4 km/h (5 Bft)
04.05.2015 13:32 19,2 C 17,8 C 70 % 1008,6 hPa 0,0 l/m 2 min 0 min 967 W/m 23,0 km/h (4 Bft)
04.05.2015 13:34 19,3 C 17,2 C 70 % 1008,6 hPa 0,0 l/m 2 min 0 min 851 W/m 20,9 km/h (4 Bft)
04.05.2015 13:36 19,3 C 16,7 C 68 % 1008,5 hPa 0,0 l/m 0 min 0 min 338 W/m 29,3 km/h (5 Bft)
04.05.2015 13:38 19,3 C 16,7 C 68 % 1008,6 hPa 0,0 l/m 0 min 0 min 365 W/m 16,7 km/h (3 Bft)
04.05.2015 13:40 19,2 C 16,7 C 68 % 1008,6 hPa 0,0 l/m 2 min 0 min 403 W/m 23,0 km/h (4 Bft)
04.05.2015 13:42 19,2 C 16,7 C 68 % 1008,6 hPa 0,0 l/m 2 min 0 min 611 W/m 16,7 km/h (3 Bft)
04.05.2015 13:44 19,3 C 16,7 C 69 % 1008,5 hPa 0,0 l/m 2 min 0 min 882 W/m 25,1 km/h (4 Bft)
04.05.2015 13:46 19,4 C 16,7 C 68 % 1008,6 hPa 0,0 l/m 2 min 0 min 879 W/m 25,1 km/h (4 Bft)
04.05.2015 13:48 19,4 C 16,7 C 69 % 1008,6 hPa 0,0 l/m 2 min 0 min 879 W/m 18,8 km/h (3 Bft)
04.05.2015 13:50 19,5 C 16,7 C 68 % 1008,6 hPa 0,0 l/m 0 min 0 min 378 W/m 14,6 km/h (3 Bft)
04.05.2015 13:52 19,5 C 16,7 C 68 % 1008,6 hPa 0,0 l/m 0 min 0 min 354 W/m 14,6 km/h (3 Bft)
04.05.2015 13:54 19,5 C 16,7 C 67 % 1008,5 hPa 0,0 l/m 2 min 0 min 400 W/m 27,2 km/h (4 Bft)
04.05.2015 13:56 19,5 C 16,7 C 67 % 1008,5 hPa 0,0 l/m 2 min 0 min 401 W/m 27,2 km/h (4 Bft)
04.05.2015 13:58 19,5 C 16,7 C 66 % 1008,5 hPa 0,0 l/m 2 min 0 min 686 W/m 20,9 km/h (4 Bft)
04.05.2015 14:00 19,5 C 16,7 C 66 % 1008,4 hPa 0,0 l/m 2 min 0 min 806 W/m 18,8 km/h (3 Bft)
04.05.2015 14:02 19,6 C 17,2 C 67 % 1008,4 hPa 0,0 l/m 2 min 0 min 788 W/m 20,9 km/h (4 Bft)
04.05.2015 14:04 19,7 C 17,2 C 66 % 1008,4 hPa 0,0 l/m 2 min 0 min 798 W/m 20,9 km/h (4 Bft)
04.05.2015 14:06 19,8 C 17,2 C 66 % 1008,4 hPa 0,0 l/m 2 min 0 min 823 W/m 20,9 km/h (4 Bft)
04.05.2015 14:08 19,9 C 17,2 C 64 % 1008,4 hPa 0,0 l/m 2 min 0 min 846 W/m 20,9 km/h (4 Bft)
04.05.2015 14:10 20,0 C 17,2 C 65 % 1008,3 hPa 0,0 l/m 2 min 0 min 901 W/m 16,7 km/h (3 Bft)
04.05.2015 14:12 20,1 C 17,2 C 63 % 1008,3 hPa 0,0 l/m 2 min 0 min 717 W/m 18,8 km/h (3 Bft)
04.05.2015 14:14 20,2 C 17,2 C 65 % 1008,3 hPa 0,0 l/m 2 min 0 min 411 W/m 16,7 km/h (3 Bft)
04.05.2015 14:16 20,3 C 17,2 C 64 % 1008,3 hPa 0,0 l/m 2 min 0 min 758 W/m 20,9 km/h (4 Bft)
04.05.2015 14:18 20,4 C 17,8 C 66 % 1008,4 hPa 0,0 l/m 2 min 0 min 938 W/m 18,8 km/h (3 Bft)
04.05.2015 14:20 20,6 C 17,2 C 64 % 1008,4 hPa 0,0 l/m 2 min 0 min 667 W/m 27,2 km/h (4 Bft)
04.05.2015 14:22 20,6 C 17,8 C 64 % 1008,3 hPa 0,0 l/m 2 min 0 min 790 W/m 20,9 km/h (4 Bft)
04.05.2015 14:24 20,7 C 17,8 C 64 % 1008,3 hPa 0,0 l/m 2 min 0 min 921 W/m 12,6 km/h (3 Bft)
04.05.2015 14:26 20,7 C 17,2 C 63 % 1008,4 hPa 0,0 l/m 0 min 0 min 311 W/m 14,6 km/h (3 Bft)
04.05.2015 14:28 20,7 C 17,2 C 63 % 1008,4 hPa 0,0 l/m 0 min 0 min 276 W/m 20,9 km/h (4 Bft)
04.05.2015 14:30 20,7 C 17,2 C 63 % 1008,4 hPa 0,0 l/m 0 min 0 min 279 W/m 14,6 km/h (3 Bft)
04.05.2015 14:32 20,6 C 16,7 C 62 % 1008,4 hPa 0,0 l/m 0 min 0 min 323 W/m 14,6 km/h (3 Bft)
04.05.2015 14:34 20,6 C 17,2 C 63 % 1008,3 hPa 0,0 l/m 0 min 0 min 369 W/m 16,7 km/h (3 Bft)
04.05.2015 14:36 20,6 C 17,2 C 64 % 1008,4 hPa 0,0 l/m 2 min 0 min 387 W/m 12,6 km/h (3 Bft)
04.05.2015 14:38 20,6 C 17,2 C 64 % 1008,3 hPa 0,0 l/m 0 min 0 min 351 W/m 18,8 km/h (3 Bft)
04.05.2015 14:40 20,6 C 17,2 C 63 % 1008,3 hPa 0,0 l/m 0 min 0 min 350 W/m 16,7 km/h (3 Bft)
04.05.2015 14:42 20,6 C 17,8 C 64 % 1008,3 hPa 0,0 l/m 0 min 0 min 350 W/m 16,7 km/h (3 Bft)
04.05.2015 14:44 20,6 C 18,3 C 62 % 1008,2 hPa 0,0 l/m 2 min 0 min 668 W/m 16,7 km/h (3 Bft)
04.05.2015 14:46 20,7 C 18,3 C 63 % 1008,2 hPa 0,0 l/m 2 min 0 min 846 W/m 14,6 km/h (3 Bft)
04.05.2015 14:48 20,7 C 18,3 C 63 % 1008,2 hPa 0,0 l/m 2 min 0 min 845 W/m 12,6 km/h (3 Bft)
04.05.2015 14:50 20,7 C 18,3 C 65 % 1008,2 hPa 0,0 l/m 2 min 0 min 827 W/m 14,6 km/h (3 Bft)
04.05.2015 14:52 20,8 C 18,3 C 64 % 1008,2 hPa 0,0 l/m 2 min 0 min 805 W/m 12,6 km/h (3 Bft)
04.05.2015 14:54 20,9 C 18,9 C 63 % 1008,1 hPa 0,0 l/m 2 min 0 min 808 W/m 10,5 km/h (2 Bft)
04.05.2015 14:56 20,9 C 18,9 C 62 % 1008,1 hPa 0,0 l/m 2 min 0 min 846 W/m 10,5 km/h (2 Bft)
04.05.2015 14:58 21,1 C 18,9 C 65 % 1008,1 hPa 0,0 l/m 2 min 0 min 852 W/m 12,6 km/h (3 Bft)
04.05.2015 15:00 21,2 C 18,9 C 64 % 1008,1 hPa 0,0 l/m 2 min 0 min 859 W/m 14,6 km/h (3 Bft)
04.05.2015 15:02 21,3 C 18,3 C 62 % 1008,0 hPa 0,0 l/m 2 min 0 min 880 W/m 16,7 km/h (3 Bft)
04.05.2015 15:04 21,4 C 18,3 C 61 % 1008,0 hPa 0,0 l/m 2 min 0 min 859 W/m 16,7 km/h (3 Bft)
04.05.2015 15:06 21,5 C 18,3 C 60 % 1008,0 hPa 0,0 l/m 2 min 0 min 838 W/m 14,6 km/h (3 Bft)
04.05.2015 15:08 21,6 C 18,3 C 61 % 1007,9 hPa 0,0 l/m 2 min 0 min 790 W/m 14,6 km/h (3 Bft)
04.05.2015 15:10 21,7 C 18,9 C 59 % 1007,9 hPa 0,0 l/m 2 min 0 min 825 W/m 14,6 km/h (3 Bft)
04.05.2015 15:12 21,8 C 18,3 C 58 % 1008,0 hPa 0,0 l/m 2 min 0 min 821 W/m 12,6 km/h (3 Bft)
04.05.2015 15:14 21,9 C 18,3 C 59 % 1007,9 hPa 0,0 l/m 2 min 0 min 773 W/m 16,7 km/h (3 Bft)
04.05.2015 15:16 21,9 C 18,3 C 61 % 1007,9 hPa 0,0 l/m 2 min 0 min 761 W/m 8,4 km/h (2 Bft)
04.05.2015 15:18 22,0 C 18,3 C 61 % 1007,8 hPa 0,0 l/m 2 min 0 min 768 W/m 14,6 km/h (3 Bft)
04.05.2015 15:20 22,1 C 18,3 C 61 % 1007,9 hPa 0,0 l/m 2 min 0 min 810 W/m 14,6 km/h (3 Bft)
04.05.2015 15:22 22,2 C 18,3 C 60 % 1007,8 hPa 0,0 l/m 2 min 0 min 635 W/m 12,6 km/h (3 Bft)
04.05.2015 15:24 22,2 C 18,3 C 60 % 1007,7 hPa 0,0 l/m 0 min 0 min 330 W/m 10,5 km/h (2 Bft)
04.05.2015 15:26 22,2 C 17,8 C 59 % 1007,7 hPa 0,0 l/m 0 min 0 min 324 W/m 16,7 km/h (3 Bft)
04.05.2015 15:28 22,1 C 17,8 C 59 % 1007,7 hPa 0,0 l/m 0 min 0 min 316 W/m 16,7 km/h (3 Bft)
04.05.2015 15:30 22,0 C 17,2 C 59 % 1007,6 hPa 0,0 l/m 0 min 0 min 329 W/m 14,6 km/h (3 Bft)
04.05.2015 15:32 21,9 C 17,2 C 59 % 1007,7 hPa 0,0 l/m 0 min 0 min 349 W/m 16,7 km/h (3 Bft)
04.05.2015 15:34 21,8 C 17,2 C 59 % 1007,8 hPa 0,0 l/m 2 min 0 min 392 W/m 8,4 km/h (2 Bft)
04.05.2015 15:36 21,7 C 17,2 C 59 % 1007,7 hPa 0,0 l/m 2 min 0 min 489 W/m 14,6 km/h (3 Bft)
04.05.2015 15:38 21,7 C 17,8 C 59 % 1007,6 hPa 0,0 l/m 2 min 0 min 549 W/m 14,6 km/h (3 Bft)
04.05.2015 15:40 21,6 C 17,8 C 59 % 1007,6 hPa 0,0 l/m 2 min 0 min 487 W/m 14,6 km/h (3 Bft)
04.05.2015 15:42 21,6 C 17,8 C 59 % 1007,6 hPa 0,0 l/m 2 min 0 min 531 W/m 16,7 km/h (3 Bft)
04.05.2015 15:44 21,5 C 17,8 C 60 % 1007,6 hPa 0,0 l/m 2 min 0 min 494 W/m 14,6 km/h (3 Bft)
04.05.2015 15:46 21,5 C 17,8 C 60 % 1007,6 hPa 0,0 l/m 2 min 0 min 452 W/m 14,6 km/h (3 Bft)
04.05.2015 15:48 21,4 C 17,8 C 60 % 1007,5 hPa 0,0 l/m 2 min 0 min 581 W/m 18,8 km/h (3 Bft)
04.05.2015 15:50 21,4 C 17,8 C 59 % 1007,4 hPa 0,0 l/m 2 min 0 min 445 W/m 10,5 km/h (2 Bft)
04.05.2015 15:52 21,4 C 17,8 C 59 % 1007,4 hPa 0,0 l/m 2 min 0 min 382 W/m 14,6 km/h (3 Bft)
04.05.2015 15:54 21,4 C 17,8 C 60 % 1007,4 hPa 0,0 l/m 2 min 0 min 469 W/m 16,7 km/h (3 Bft)
04.05.2015 15:56 21,4 C 17,8 C 61 % 1007,4 hPa 0,0 l/m 2 min 0 min 596 W/m 18,8 km/h (3 Bft)
04.05.2015 15:58 21,4 C 17,8 C 61 % 1007,4 hPa 0,0 l/m 2 min 0 min 786 W/m 12,6 km/h (3 Bft)
04.05.2015 16:00 21,5 C 18,3 C 60 % 1007,4 hPa 0,0 l/m 2 min 0 min 793 W/m 16,7 km/h (3 Bft)
04.05.2015 16:02 21,7 C 17,8 C 61 % 1007,4 hPa 0,0 l/m 2 min 0 min 765 W/m 18,8 km/h (3 Bft)
04.05.2015 16:04 21,7 C 17,8 C 61 % 1007,4 hPa 0,0 l/m 2 min 0 min 737 W/m 18,8 km/h (3 Bft)
04.05.2015 16:06 21,8 C 17,8 C 61 % 1007,4 hPa 0,0 l/m 2 min 0 min 714 W/m 16,7 km/h (3 Bft)
04.05.2015 16:08 21,9 C 17,8 C 58 % 1007,3 hPa 0,0 l/m 2 min 0 min 692 W/m 16,7 km/h (3 Bft)
04.05.2015 16:10 21,9 C 17,8 C 59 % 1007,2 hPa 0,0 l/m 2 min 0 min 638 W/m 14,6 km/h (3 Bft)
04.05.2015 16:12 22,1 C 17,2 C 60 % 1007,2 hPa 0,0 l/m 2 min 0 min 590 W/m 14,6 km/h (3 Bft)
04.05.2015 16:14 22,2 C 17,2 C 60 % 1007,2 hPa 0,0 l/m 2 min 0 min 541 W/m 10,5 km/h (2 Bft)
04.05.2015 16:16 22,2 C 17,2 C 58 % 1007,1 hPa 0,0 l/m 2 min 0 min 536 W/m 6,3 km/h (2 Bft)
04.05.2015 16:18 22,3 C 17,8 C 60 % 1007,1 hPa 0,0 l/m 2 min 0 min 681 W/m 6,3 km/h (2 Bft)
04.05.2015 16:20 22,4 C 17,8 C 61 % 1007,0 hPa 0,0 l/m 2 min 0 min 738 W/m 14,6 km/h (3 Bft)
04.05.2015 16:22 22,4 C 17,8 C 57 % 1007,1 hPa 0,0 l/m 2 min 0 min 707 W/m 12,6 km/h (3 Bft)
04.05.2015 16:24 22,5 C 17,8 C 56 % 1007,0 hPa 0,0 l/m 2 min 0 min 679 W/m 10,5 km/h (2 Bft)
04.05.2015 16:26 22,6 C 17,8 C 58 % 1007,1 hPa 0,0 l/m 2 min 0 min 681 W/m 6,3 km/h (2 Bft)
04.05.2015 16:28 22,7 C 17,8 C 58 % 1007,1 hPa 0,0 l/m 2 min 0 min 666 W/m 14,6 km/h (3 Bft)
04.05.2015 16:30 22,8 C 17,8 C 58 % 1007,1 hPa 0,0 l/m 2 min 0 min 689 W/m 14,6 km/h (3 Bft)
04.05.2015 16:32 22,8 C 17,8 C 58 % 1007,0 hPa 0,0 l/m 2 min 0 min 698 W/m 14,6 km/h (3 Bft)
04.05.2015 16:34 22,8 C 17,8 C 56 % 1007,1 hPa 0,0 l/m 0 min 0 min 242 W/m 14,6 km/h (3 Bft)
04.05.2015 16:36 22,8 C 17,2 C 56 % 1007,1 hPa 0,0 l/m 0 min 0 min 205 W/m 8,4 km/h (2 Bft)
04.05.2015 16:38 22,8 C 17,2 C 58 % 1007,1 hPa 0,0 l/m 0 min 0 min 163 W/m 10,5 km/h (2 Bft)
04.05.2015 16:40 22,7 C 17,2 C 57 % 1007,1 hPa 0,0 l/m 2 min 0 min 599 W/m 14,6 km/h (3 Bft)
04.05.2015 16:42 22,7 C 17,8 C 56 % 1007,1 hPa 0,0 l/m 2 min 0 min 718 W/m 18,8 km/h (3 Bft)
04.05.2015 16:44 22,7 C 17,8 C 56 % 1007,1 hPa 0,0 l/m 2 min 0 min 707 W/m 10,5 km/h (2 Bft)
04.05.2015 16:46 22,7 C 18,3 C 58 % 1007,1 hPa 0,0 l/m 2 min 0 min 718 W/m 10,5 km/h (2 Bft)
04.05.2015 16:48 22,7 C 18,3 C 57 % 1007,0 hPa 0,0 l/m 2 min 0 min 759 W/m 6,3 km/h (2 Bft)
04.05.2015 16:50 22,8 C 18,3 C 57 % 1006,9 hPa 0,0 l/m 2 min 0 min 704 W/m 10,5 km/h (2 Bft)
04.05.2015 16:52 22,8 C 18,3 C 56 % 1007,0 hPa 0,0 l/m 0 min 0 min 264 W/m 4,2 km/h (1 Bft)
04.05.2015 16:54 22,8 C 17,8 C 56 % 1007,0 hPa 0,0 l/m 0 min 0 min 274 W/m 8,4 km/h (2 Bft)
04.05.2015 16:56 22,8 C 17,8 C 57 % 1006,9 hPa 0,0 l/m 2 min 0 min 580 W/m 8,4 km/h (2 Bft)
04.05.2015 16:58 22,9 C 17,8 C 57 % 1007,0 hPa 0,0 l/m 2 min 0 min 374 W/m 10,5 km/h (2 Bft)
04.05.2015 17:00 22,8 C 17,8 C 57 % 1006,9 hPa 0,0 l/m 0 min 0 min 156 W/m 16,7 km/h (3 Bft)
04.05.2015 17:02 22,7 C 17,2 C 57 % 1006,9 hPa 0,0 l/m 0 min 0 min 153 W/m 14,6 km/h (3 Bft)
04.05.2015 17:04 22,7 C 17,2 C 57 % 1006,9 hPa 0,0 l/m 0 min 0 min 172 W/m 8,4 km/h (2 Bft)
04.05.2015 17:06 22,6 C 17,2 C 57 % 1006,9 hPa 0,0 l/m 0 min 0 min 160 W/m 16,7 km/h (3 Bft)
04.05.2015 17:08 22,5 C 17,2 C 57 % 1006,9 hPa 0,0 l/m 0 min 0 min 157 W/m 16,7 km/h (3 Bft)
04.05.2015 17:10 22,4 C 17,2 C 57 % 1006,8 hPa 0,0 l/m 0 min 0 min 148 W/m 14,6 km/h (3 Bft)
04.05.2015 17:12 22,3 C 17,2 C 58 % 1006,8 hPa 0,0 l/m 0 min 0 min 152 W/m 12,6 km/h (3 Bft)
04.05.2015 17:14 22,2 C 16,7 C 58 % 1006,8 hPa 0,0 l/m 0 min 0 min 146 W/m 8,4 km/h (2 Bft)
04.05.2015 17:16 22,1 C 16,7 C 58 % 1006,8 hPa 0,0 l/m 0 min 0 min 165 W/m 10,5 km/h (2 Bft)
04.05.2015 17:18 22,1 C 16,7 C 58 % 1006,8 hPa 0,0 l/m 0 min 0 min 162 W/m 12,6 km/h (3 Bft)
04.05.2015 17:20 21,9 C 16,7 C 58 % 1006,8 hPa 0,0 l/m 0 min 0 min 120 W/m 8,4 km/h (2 Bft)
04.05.2015 17:22 21,9 C 16,7 C 58 % 1006,8 hPa 0,0 l/m 2 min 0 min 327 W/m 6,3 km/h (2 Bft)
04.05.2015 17:24 21,8 C 16,7 C 59 % 1006,7 hPa 0,0 l/m 2 min 0 min 450 W/m 12,6 km/h (3 Bft)
04.05.2015 17:26 21,8 C 16,7 C 59 % 1006,7 hPa 0,0 l/m 2 min 0 min 553 W/m 10,5 km/h (2 Bft)
04.05.2015 17:28 21,7 C 16,7 C 59 % 1006,7 hPa 0,0 l/m 2 min 0 min 509 W/m 10,5 km/h (2 Bft)
04.05.2015 17:30 21,7 C 16,7 C 60 % 1006,7 hPa 0,0 l/m 2 min 0 min 456 W/m 10,5 km/h (2 Bft)
04.05.2015 17:32 21,7 C 16,7 C 60 % 1006,7 hPa 0,0 l/m 2 min 0 min 406 W/m 12,6 km/h (3 Bft)
04.05.2015 17:34 21,7 C 16,7 C 59 % 1006,6 hPa 0,0 l/m 2 min 0 min 399 W/m 14,6 km/h (3 Bft)
04.05.2015 17:36 21,7 C 16,7 C 59 % 1006,5 hPa 0,0 l/m 2 min 0 min 399 W/m 14,6 km/h (3 Bft)
04.05.2015 17:38 21,7 C 16,7 C 59 % 1006,6 hPa 0,0 l/m 2 min 0 min 391 W/m 10,5 km/h (2 Bft)
04.05.2015 17:40 21,7 C 16,7 C 60 % 1006,4 hPa 0,0 l/m 2 min 0 min 326 W/m 6,3 km/h (2 Bft)
04.05.2015 17:42 21,7 C 16,7 C 59 % 1006,4 hPa 0,0 l/m 0 min 0 min 214 W/m 12,6 km/h (3 Bft)
04.05.2015 17:44 21,7 C 16,7 C 59 % 1006,5 hPa 0,0 l/m 0 min 0 min 216 W/m 16,7 km/h (3 Bft)
04.05.2015 17:46 21,6 C 16,7 C 59 % 1006,4 hPa 0,0 l/m 2 min 0 min 239 W/m 20,9 km/h (4 Bft)
04.05.2015 17:48 21,6 C 16,7 C 59 % 1006,3 hPa 0,0 l/m 2 min 0 min 297 W/m 14,6 km/h (3 Bft)
04.05.2015 17:50 21,6 C 16,7 C 60 % 1006,2 hPa 0,0 l/m 2 min 0 min 353 W/m 10,5 km/h (2 Bft)
04.05.2015 17:52 21,6 C 16,7 C 61 % 1006,2 hPa 0,0 l/m 2 min 0 min 360 W/m 8,4 km/h (2 Bft)
04.05.2015 17:54 21,6 C 16,7 C 61 % 1006,2 hPa 0,0 l/m 2 min 0 min 338 W/m 12,6 km/h (3 Bft)
04.05.2015 17:56 21,5 C 16,7 C 60 % 1006,2 hPa 0,0 l/m 2 min 0 min 284 W/m 8,4 km/h (2 Bft)
04.05.2015 17:58 21,5 C 16,7 C 61 % 1006,2 hPa 0,0 l/m 2 min 0 min 334 W/m 10,5 km/h (2 Bft)
04.05.2015 18:00 21,5 C 16,7 C 61 % 1006,2 hPa 0,0 l/m 2 min 0 min 348 W/m 10,5 km/h (2 Bft)
04.05.2015 18:02 21,5 C 16,7 C 61 % 1006,1 hPa 0,0 l/m 2 min 0 min 308 W/m 12,6 km/h (3 Bft)
04.05.2015 18:06 21,4 C 16,7 C 60 % 1006,2 hPa 0,0 l/m 2 min 0 min 275 W/m 16,7 km/h (3 Bft)
04.05.2015 18:08 21,4 C 16,7 C 60 % 1006,1 hPa 0,0 l/m 2 min 0 min 231 W/m 16,7 km/h (3 Bft)
04.05.2015 18:10 21,4 C 16,7 C 60 % 1006,0 hPa 0,0 l/m 2 min 0 min 271 W/m 14,6 km/h (3 Bft)
04.05.2015 18:12 21,4 C 16,7 C 60 % 1005,9 hPa 0,0 l/m 2 min 0 min 259 W/m 14,6 km/h (3 Bft)
04.05.2015 18:14 21,3 C 16,7 C 60 % 1005,9 hPa 0,0 l/m 2 min 0 min 220 W/m 14,6 km/h (3 Bft)
04.05.2015 18:16 21,3 C 16,7 C 61 % 1005,8 hPa 0,0 l/m 2 min 0 min 256 W/m 10,5 km/h (2 Bft)
04.05.2015 18:18 21,3 C 16,7 C 61 % 1005,9 hPa 0,0 l/m 2 min 0 min 245 W/m 12,6 km/h (3 Bft)
04.05.2015 18:20 21,3 C 16,7 C 61 % 1005,8 hPa 0,0 l/m 2 min 0 min 247 W/m 18,8 km/h (3 Bft)
04.05.2015 18:22 21,3 C 16,7 C 61 % 1005,8 hPa 0,0 l/m 2 min 0 min 246 W/m 14,6 km/h (3 Bft)
04.05.2015 18:24 21,2 C 16,7 C 61 % 1005,7 hPa 0,0 l/m 2 min 0 min 206 W/m 12,6 km/h (3 Bft)
04.05.2015 18:26 21,2 C 17,2 C 61 % 1005,7 hPa 0,0 l/m 2 min 0 min 196 W/m 14,6 km/h (3 Bft)
04.05.2015 18:28 21,2 C 17,2 C 62 % 1005,6 hPa 0,0 l/m 2 min 0 min 186 W/m 6,3 km/h (2 Bft)
04.05.2015 18:30 21,2 C 16,7 C 62 % 1005,6 hPa 0,0 l/m 0 min 0 min 171 W/m 14,6 km/h (3 Bft)
04.05.2015 18:32 21,2 C 16,7 C 61 % 1005,5 hPa 0,0 l/m 0 min 0 min 159 W/m 16,7 km/h (3 Bft)
04.05.2015 18:34 21,1 C 16,7 C 62 % 1005,4 hPa 0,0 l/m 0 min 0 min 151 W/m 8,4 km/h (2 Bft)
04.05.2015 18:36 21,1 C 16,7 C 61 % 1005,4 hPa 0,0 l/m 0 min 0 min 148 W/m 10,5 km/h (2 Bft)
04.05.2015 18:38 21,1 C 16,7 C 62 % 1005,4 hPa 0,0 l/m 0 min 0 min 149 W/m 10,5 km/h (2 Bft)
04.05.2015 18:40 21,1 C 16,7 C 62 % 1005,4 hPa 0,0 l/m 0 min 0 min 150 W/m 10,5 km/h (2 Bft)
04.05.2015 18:42 21,1 C 16,7 C 61 % 1005,3 hPa 0,0 l/m 0 min 0 min 150 W/m 12,6 km/h (3 Bft)
04.05.2015 18:44 21,0 C 16,7 C 62 % 1005,3 hPa 0,0 l/m 0 min 0 min 148 W/m 10,5 km/h (2 Bft)
04.05.2015 18:46 21,0 C 16,7 C 62 % 1005,3 hPa 0,0 l/m 0 min 0 min 142 W/m 10,5 km/h (2 Bft)
04.05.2015 18:48 21,0 C 16,7 C 63 % 1005,2 hPa 0,0 l/m 0 min 0 min 138 W/m 12,6 km/h (3 Bft)
04.05.2015 18:50 21,0 C 16,7 C 62 % 1005,2 hPa 0,0 l/m 0 min 0 min 138 W/m 10,5 km/h (2 Bft)
04.05.2015 18:52 20,9 C 16,7 C 63 % 1005,1 hPa 0,0 l/m 0 min 0 min 137 W/m 16,7 km/h (3 Bft)
04.05.2015 18:54 20,9 C 16,7 C 62 % 1005,1 hPa 0,0 l/m 0 min 0 min 133 W/m 14,6 km/h (3 Bft)
04.05.2015 18:56 20,9 C 16,7 C 62 % 1005,0 hPa 0,0 l/m 0 min 0 min 127 W/m 8,4 km/h (2 Bft)
04.05.2015 18:58 20,9 C 16,7 C 63 % 1005,0 hPa 0,0 l/m 0 min 0 min 124 W/m 8,4 km/h (2 Bft)
04.05.2015 19:00 20,8 C 16,7 C 63 % 1004,9 hPa 0,0 l/m 0 min 0 min 119 W/m 12,6 km/h (3 Bft)
04.05.2015 19:02 20,8 C 16,7 C 63 % 1004,9 hPa 0,0 l/m 0 min 0 min 117 W/m 10,5 km/h (2 Bft)
04.05.2015 19:04 20,8 C 16,7 C 63 % 1004,9 hPa 0,0 l/m 0 min 0 min 119 W/m 6,3 km/h (2 Bft)
04.05.2015 19:06 20,8 C 16,7 C 63 % 1004,9 hPa 0,0 l/m 0 min 0 min 120 W/m 14,6 km/h (3 Bft)
04.05.2015 19:08 20,8 C 16,7 C 64 % 1004,9 hPa 0,0 l/m 0 min 0 min 126 W/m 6,3 km/h (2 Bft)
04.05.2015 19:10 20,8 C 16,7 C 65 % 1004,8 hPa 0,0 l/m 0 min 0 min 126 W/m 6,3 km/h (2 Bft)
04.05.2015 19:12 20,7 C 16,1 C 65 % 1004,8 hPa 0,0 l/m 0 min 0 min 123 W/m 10,5 km/h (2 Bft)
04.05.2015 19:14 20,7 C 16,1 C 64 % 1004,9 hPa 0,0 l/m 0 min 0 min 126 W/m 6,3 km/h (2 Bft)
04.05.2015 19:16 20,7 C 15,6 C 65 % 1004,8 hPa 0,0 l/m 0 min 0 min 121 W/m 6,3 km/h (2 Bft)
04.05.2015 19:18 20,7 C 15,6 C 65 % 1004,7 hPa 0,0 l/m 2 min 0 min 124 W/m 4,2 km/h (1 Bft)
04.05.2015 19:20 20,7 C 15,0 C 64 % 1004,7 hPa 0,0 l/m 2 min 0 min 122 W/m 10,5 km/h (2 Bft)
04.05.2015 19:22 20,7 C 15,0 C 65 % 1004,7 hPa 0,0 l/m 2 min 0 min 120 W/m 10,5 km/h (2 Bft)
04.05.2015 19:24 20,7 C 15,0 C 65 % 1004,7 hPa 0,0 l/m 2 min 0 min 119 W/m 8,4 km/h (2 Bft)
04.05.2015 19:26 20,6 C 15,0 C 65 % 1004,7 hPa 0,0 l/m 0 min 0 min 110 W/m 8,4 km/h (2 Bft)
04.05.2015 19:28 20,6 C 15,0 C 65 % 1004,7 hPa 0,0 l/m 0 min 0 min 96 W/m 10,5 km/h (2 Bft)
04.05.2015 19:30 20,6 C 15,0 C 65 % 1004,7 hPa 0,0 l/m 0 min 0 min 90 W/m 8,4 km/h (2 Bft)
04.05.2015 19:32 20,6 C 15,0 C 65 % 1004,6 hPa 0,0 l/m 0 min 0 min 86 W/m 8,4 km/h (2 Bft)
04.05.2015 19:34 20,6 C 15,0 C 65 % 1004,7 hPa 0,0 l/m 0 min 0 min 84 W/m 10,5 km/h (2 Bft)
04.05.2015 19:36 20,5 C 15,0 C 65 % 1004,6 hPa 0,0 l/m 0 min 0 min 83 W/m 10,5 km/h (2 Bft)
04.05.2015 19:38 20,5 C 15,6 C 65 % 1004,6 hPa 0,0 l/m 0 min 0 min 79 W/m 10,5 km/h (2 Bft)
04.05.2015 19:40 20,4 C 15,6 C 65 % 1004,5 hPa 0,0 l/m 0 min 0 min 72 W/m 12,6 km/h (3 Bft)
04.05.2015 19:42 20,4 C 15,6 C 65 % 1004,5 hPa 0,0 l/m 0 min 0 min 67 W/m 10,5 km/h (2 Bft)
04.05.2015 19:44 20,4 C 15,6 C 65 % 1004,5 hPa 0,0 l/m 0 min 0 min 62 W/m 6,3 km/h (2 Bft)
04.05.2015 19:46 20,4 C 15,0 C 65 % 1004,5 hPa 0,0 l/m 0 min 0 min 60 W/m 6,3 km/h (2 Bft)
04.05.2015 19:48 20,4 C 15,0 C 65 % 1004,4 hPa 0,0 l/m 0 min 0 min 58 W/m 10,5 km/h (2 Bft)
04.05.2015 19:50 20,4 C 15,0 C 66 % 1004,3 hPa 0,0 l/m 0 min 0 min 55 W/m 10,5 km/h (2 Bft)
04.05.2015 19:52 20,3 C 15,0 C 66 % 1004,3 hPa 0,0 l/m 0 min 0 min 53 W/m 10,5 km/h (2 Bft)
04.05.2015 19:54 20,3 C 15,0 C 66 % 1004,3 hPa 0,0 l/m 0 min 0 min 50 W/m 6,3 km/h (2 Bft)
04.05.2015 19:56 20,3 C 15,0 C 66 % 1004,3 hPa 0,0 l/m 0 min 0 min 47 W/m 12,6 km/h (3 Bft)
04.05.2015 19:58 20,3 C 15,6 C 66 % 1004,2 hPa 0,0 l/m 0 min 0 min 45 W/m 12,6 km/h (3 Bft)
04.05.2015 20:00 20,2 C 15,6 C 66 % 1004,3 hPa 0,0 l/m 0 min 0 min 41 W/m 10,5 km/h (2 Bft)
04.05.2015 20:02 20,2 C 15,0 C 67 % 1004,2 hPa 0,0 l/m 0 min 0 min 37 W/m 10,5 km/h (2 Bft)
04.05.2015 20:04 20,2 C 15,0 C 67 % 1004,2 hPa 0,0 l/m 0 min 0 min 35 W/m 8,4 km/h (2 Bft)
04.05.2015 20:06 20,2 C 15,0 C 67 % 1004,0 hPa 0,0 l/m 0 min 0 min 34 W/m 16,7 km/h (3 Bft)
04.05.2015 20:08 20,1 C 15,0 C 66 % 1004,0 hPa 0,0 l/m 0 min 0 min 33 W/m 16,7 km/h (3 Bft)
04.05.2015 20:10 20,1 C 15,0 C 66 % 1003,9 hPa 0,0 l/m 0 min 0 min 30 W/m 10,5 km/h (2 Bft)
04.05.2015 20:12 20,1 C 15,0 C 66 % 1004,0 hPa 0,0 l/m 0 min 0 min 28 W/m 8,4 km/h (2 Bft)
04.05.2015 20:14 20,0 C 15,0 C 66 % 1004,0 hPa 0,0 l/m 0 min 0 min 29 W/m 14,6 km/h (3 Bft)
04.05.2015 20:16 19,9 C 15,0 C 66 % 1004,0 hPa 0,0 l/m 0 min 0 min 30 W/m 10,5 km/h (2 Bft)
04.05.2015 20:18 19,9 C 15,0 C 66 % 1004,0 hPa 0,0 l/m 0 min 0 min 30 W/m 8,4 km/h (2 Bft)
04.05.2015 20:20 19,9 C 15,0 C 66 % 1003,9 hPa 0,0 l/m 0 min 0 min 27 W/m 12,6 km/h (3 Bft)
04.05.2015 20:22 19,9 C 15,0 C 66 % 1003,8 hPa 0,0 l/m 0 min 0 min 25 W/m 14,6 km/h (3 Bft)
04.05.2015 20:24 19,8 C 15,0 C 66 % 1003,8 hPa 0,0 l/m 0 min 0 min 23 W/m 14,6 km/h (3 Bft)
04.05.2015 20:26 19,8 C 15,0 C 67 % 1003,7 hPa 0,0 l/m 0 min 0 min 21 W/m 8,4 km/h (2 Bft)
04.05.2015 20:28 19,8 C 15,0 C 67 % 1003,7 hPa 0,0 l/m 0 min 0 min 21 W/m 8,4 km/h (2 Bft)
04.05.2015 20:30 19,8 C 15,0 C 67 % 1003,8 hPa 0,0 l/m 0 min 0 min 21 W/m 10,5 km/h (2 Bft)
04.05.2015 20:32 19,7 C 15,0 C 67 % 1003,8 hPa 0,0 l/m 0 min 0 min 19 W/m 12,6 km/h (3 Bft)
04.05.2015 20:34 19,7 C 15,0 C 67 % 1003,7 hPa 0,0 l/m 0 min 0 min 18 W/m 8,4 km/h (2 Bft)
04.05.2015 20:36 19,7 C 15,0 C 67 % 1003,7 hPa 0,0 l/m 0 min 0 min 16 W/m 8,4 km/h (2 Bft)
04.05.2015 20:38 19,7 C 15,0 C 67 % 1003,8 hPa 0,0 l/m 0 min 0 min 14 W/m 10,5 km/h (2 Bft)
04.05.2015 20:40 19,6 C 15,0 C 67 % 1003,7 hPa 0,0 l/m 0 min 0 min 12 W/m 8,4 km/h (2 Bft)
04.05.2015 20:42 19,6 C 15,0 C 67 % 1003,7 hPa 0,0 l/m 0 min 0 min 11 W/m 8,4 km/h (2 Bft)
04.05.2015 20:44 19,6 C 15,0 C 67 % 1003,7 hPa 0,0 l/m 0 min 0 min 10 W/m 10,5 km/h (2 Bft)
04.05.2015 20:46 19,5 C 15,0 C 67 % 1003,7 hPa 0,0 l/m 0 min 0 min 9 W/m 10,5 km/h (2 Bft)
04.05.2015 20:48 19,4 C 14,4 C 67 % 1003,7 hPa 0,0 l/m 0 min 0 min 7 W/m 10,5 km/h (2 Bft)
04.05.2015 20:50 19,4 C 14,4 C 68 % 1003,7 hPa 0,0 l/m 0 min 0 min 5 W/m 12,6 km/h (3 Bft)
04.05.2015 20:52 19,4 C 14,4 C 68 % 1003,7 hPa 0,0 l/m 0 min 0 min 5 W/m 10,5 km/h (2 Bft)
04.05.2015 20:54 19,3 C 14,4 C 68 % 1003,5 hPa 0,0 l/m 0 min 0 min 5 W/m 10,5 km/h (2 Bft)
04.05.2015 20:56 19,3 C 14,4 C 68 % 1003,5 hPa 0,0 l/m 0 min 0 min 1 W/m 10,5 km/h (2 Bft)
04.05.2015 20:58 19,3 C 14,4 C 68 % 1003,4 hPa 0,0 l/m 0 min 0 min 0 W/m 14,6 km/h (3 Bft)
04.05.2015 21:00 19,2 C 14,4 C 68 % 1003,4 hPa 0,0 l/m 0 min 0 min 0 W/m 10,5 km/h (2 Bft)
04.05.2015 21:02 19,2 C 14,4 C 68 % 1003,4 hPa 0,0 l/m 0 min 0 min 0 W/m 6,3 km/h (2 Bft)
04.05.2015 21:04 19,2 C 14,4 C 68 % 1003,4 hPa 0,0 l/m 0 min 0 min 0 W/m 12,6 km/h (3 Bft)
04.05.2015 21:06 19,1 C 14,4 C 68 % 1003,4 hPa 0,0 l/m 0 min 0 min 0 W/m 6,3 km/h (2 Bft)
04.05.2015 21:08 19,1 C 14,4 C 68 % 1003,4 hPa 0,0 l/m 0 min 0 min 0 W/m 8,4 km/h (2 Bft)
04.05.2015 21:10 19,1 C 14,4 C 68 % 1003,3 hPa 0,0 l/m 0 min 0 min 0 W/m 8,4 km/h (2 Bft)
04.05.2015 21:12 19,0 C 14,4 C 68 % 1003,3 hPa 0,0 l/m 0 min 0 min 0 W/m 6,3 km/h (2 Bft)
04.05.2015 21:14 19,0 C 14,4 C 68 % 1003,2 hPa 0,0 l/m 0 min 0 min 0 W/m 8,4 km/h (2 Bft)
04.05.2015 21:16 18,9 C 14,4 C 68 % 1003,2 hPa 0,0 l/m 0 min 0 min 0 W/m 6,3 km/h (2 Bft)
04.05.2015 21:18 18,9 C 14,4 C 69 % 1003,2 hPa 0,0 l/m 0 min 0 min 0 W/m 8,4 km/h (2 Bft)
04.05.2015 21:20 18,9 C 14,4 C 69 % 1003,2 hPa 0,0 l/m 0 min 0 min 0 W/m 8,4 km/h (2 Bft)
04.05.2015 21:22 18,8 C 14,4 C 69 % 1003,2 hPa 0,0 l/m 0 min 0 min 0 W/m 8,4 km/h (2 Bft)
04.05.2015 21:24 18,8 C 14,4 C 69 % 1003,1 hPa 0,0 l/m 0 min 0 min 0 W/m 6,3 km/h (2 Bft)
04.05.2015 21:26 18,8 C 14,4 C 69 % 1003,2 hPa 0,0 l/m 0 min 0 min 0 W/m 6,3 km/h (2 Bft)
04.05.2015 21:28 18,8 C 14,4 C 69 % 1003,2 hPa 0,0 l/m 0 min 0 min 0 W/m 10,5 km/h (2 Bft)
04.05.2015 21:30 18,7 C 14,4 C 70 % 1003,1 hPa 0,0 l/m 0 min 0 min 0 W/m 6,3 km/h (2 Bft)
04.05.2015 21:32 18,7 C 14,4 C 70 % 1003,1 hPa 0,0 l/m 0 min 0 min 0 W/m 10,5 km/h (2 Bft)
04.05.2015 21:34 18,7 C 14,4 C 70 % 1003,1 hPa 0,0 l/m 0 min 0 min 0 W/m 8,4 km/h (2 Bft)
04.05.2015 21:36 18,6 C 14,4 C 70 % 1003,1 hPa 0,0 l/m 0 min 0 min 0 W/m 6,3 km/h (2 Bft)
04.05.2015 21:38 18,6 C 14,4 C 70 % 1003,1 hPa 0,0 l/m 0 min 0 min 0 W/m 10,5 km/h (2 Bft)
04.05.2015 21:40 18,6 C 14,4 C 70 % 1003,1 hPa 0,0 l/m 0 min 0 min 0 W/m 10,5 km/h (2 Bft)
04.05.2015 21:42 18,6 C 14,4 C 70 % 1003,1 hPa 0,0 l/m 0 min 0 min 0 W/m 8,4 km/h (2 Bft)
04.05.2015 21:44 18,6 C 14,4 C 70 % 1003,0 hPa 0,0 l/m 0 min 0 min 0 W/m 8,4 km/h (2 Bft)
04.05.2015 21:46 18,5 C 14,4 C 70 % 1003,0 hPa 0,0 l/m 0 min 0 min 0 W/m 10,5 km/h (2 Bft)
04.05.2015 21:48 18,5 C 14,4 C 70 % 1003,0 hPa 0,0 l/m 0 min 0 min 0 W/m 10,5 km/h (2 Bft)
04.05.2015 21:50 18,4 C 14,4 C 70 % 1002,9 hPa 0,0 l/m 0 min 0 min 0 W/m 14,6 km/h (3 Bft)
04.05.2015 21:52 18,4 C 14,4 C 69 % 1002,9 hPa 0,0 l/m 0 min 2 min 0 W/m 10,5 km/h (2 Bft)
04.05.2015 21:54 18,4 C 14,4 C 69 % 1002,8 hPa 0,0 l/m 0 min 2 min 0 W/m 14,6 km/h (3 Bft)
04.05.2015 21:56 18,4 C 14,4 C 70 % 1002,8 hPa 0,0 l/m 0 min 0 min 0 W/m 14,6 km/h (3 Bft)
04.05.2015 21:58 18,4 C 14,4 C 70 % 1002,7 hPa 0,0 l/m 0 min 0 min 0 W/m 14,6 km/h (3 Bft)
04.05.2015 22:00 18,4 C 14,4 C 69 % 1002,8 hPa 0,0 l/m 0 min 0 min 0 W/m 8,4 km/h (2 Bft)
04.05.2015 22:02 18,3 C 14,4 C 70 % 1002,7 hPa 0,0 l/m 0 min 2 min 0 W/m 8,4 km/h (2 Bft)
04.05.2015 22:04 18,3 C 13,9 C 70 % 1002,7 hPa 0,0 l/m 0 min 2 min 0 W/m 12,6 km/h (3 Bft)
04.05.2015 22:06 18,3 C 13,9 C 70 % 1002,6 hPa 0,0 l/m 0 min 2 min 0 W/m 12,6 km/h (3 Bft)
04.05.2015 22:08 18,3 C 13,9 C 70 % 1002,6 hPa 0,0 l/m 0 min 2 min 0 W/m 10,5 km/h (2 Bft)
04.05.2015 22:10 18,3 C 13,9 C 70 % 1002,6 hPa 0,0 l/m 0 min 2 min 0 W/m 14,6 km/h (3 Bft)
04.05.2015 22:12 18,3 C 13,9 C 71 % 1002,5 hPa 0,0 l/m 0 min 2 min 0 W/m 12,6 km/h (3 Bft)
04.05.2015 22:14 18,3 C 13,9 C 71 % 1002,6 hPa 0,0 l/m 0 min 2 min 0 W/m 14,6 km/h (3 Bft)
04.05.2015 22:16 18,3 C 13,9 C 72 % 1002,5 hPa 0,0 l/m 0 min 2 min 0 W/m 12,6 km/h (3 Bft)
04.05.2015 22:18 18,3 C 13,9 C 72 % 1002,5 hPa 0,0 l/m 0 min 2 min 0 W/m 14,6 km/h (3 Bft)
04.05.2015 22:20 18,3 C 13,9 C 73 % 1002,4 hPa 0,0 l/m 0 min 2 min 0 W/m 12,6 km/h (3 Bft)
04.05.2015 22:22 18,3 C 13,9 C 73 % 1002,4 hPa 0,0 l/m 0 min 2 min 0 W/m 10,5 km/h (2 Bft)
04.05.2015 22:24 18,2 C 13,3 C 73 % 1002,5 hPa 0,0 l/m 0 min 2 min 0 W/m 14,6 km/h (3 Bft)
04.05.2015 22:26 18,2 C 13,3 C 73 % 1002,4 hPa 0,0 l/m 0 min 2 min 0 W/m 14,6 km/h (3 Bft)
04.05.2015 22:28 18,2 C 13,3 C 74 % 1002,3 hPa 0,0 l/m 0 min 2 min 0 W/m 16,7 km/h (3 Bft)
04.05.2015 22:30 18,2 C 13,3 C 74 % 1002,3 hPa 0,0 l/m 0 min 0 min 0 W/m 14,6 km/h (3 Bft)
04.05.2015 22:32 18,1 C 13,3 C 74 % 1002,3 hPa 0,0 l/m 0 min 2 min 0 W/m 10,5 km/h (2 Bft)
04.05.2015 22:34 18,1 C 13,3 C 74 % 1002,2 hPa 0,0 l/m 0 min 2 min 0 W/m 12,6 km/h (3 Bft)
04.05.2015 22:36 18,1 C 13,3 C 75 % 1002,3 hPa 0,0 l/m 0 min 2 min 0 W/m 12,6 km/h (3 Bft)
04.05.2015 22:38 18,0 C 13,3 C 75 % 1002,3 hPa 0,0 l/m 0 min 2 min 0 W/m 10,5 km/h (2 Bft)
04.05.2015 22:40 17,9 C 13,3 C 76 % 1002,2 hPa 0,2 l/m 0 min 2 min 0 W/m 14,6 km/h (3 Bft)
04.05.2015 22:42 17,9 C 13,3 C 76 % 1002,2 hPa 0,0 l/m 0 min 2 min 0 W/m 14,6 km/h (3 Bft)
04.05.2015 22:44 17,9 C 13,3 C 76 % 1002,2 hPa 0,0 l/m 0 min 2 min 0 W/m 12,6 km/h (3 Bft)
04.05.2015 22:46 17,8 C 13,3 C 77 % 1002,1 hPa 0,0 l/m 0 min 2 min 0 W/m 10,5 km/h (2 Bft)
04.05.2015 22:48 17,8 C 13,3 C 77 % 1002,1 hPa 0,0 l/m 0 min 2 min 0 W/m 16,7 km/h (3 Bft)
04.05.2015 22:50 17,7 C 13,3 C 78 % 1002,0 hPa 0,0 l/m 0 min 2 min 0 W/m 16,7 km/h (3 Bft)
04.05.2015 22:52 17,7 C 13,3 C 78 % 1002,0 hPa 0,0 l/m 0 min 2 min 0 W/m 16,7 km/h (3 Bft)
04.05.2015 22:54 17,6 C 13,3 C 78 % 1002,0 hPa 0,0 l/m 0 min 2 min 0 W/m 14,6 km/h (3 Bft)
04.05.2015 22:56 17,6 C 13,3 C 78 % 1002,0 hPa 0,2 l/m 0 min 2 min 0 W/m 18,8 km/h (3 Bft)
04.05.2015 22:58 17,5 C 13,3 C 79 % 1001,9 hPa 0,0 l/m 0 min 2 min 0 W/m 18,8 km/h (3 Bft)
04.05.2015 23:00 17,4 C 13,3 C 79 % 1001,9 hPa 0,0 l/m 0 min 2 min 0 W/m 12,6 km/h (3 Bft)
04.05.2015 23:02 17,3 C 13,3 C 80 % 1001,8 hPa 0,0 l/m 0 min 2 min 0 W/m 16,7 km/h (3 Bft)
04.05.2015 23:04 17,2 C 13,3 C 80 % 1001,8 hPa 0,0 l/m 0 min 2 min 0 W/m 18,8 km/h (3 Bft)
04.05.2015 23:06 17,2 C 13,3 C 80 % 1001,7 hPa 0,0 l/m 0 min 2 min 0 W/m 20,9 km/h (4 Bft)
04.05.2015 23:08 17,1 C 13,3 C 80 % 1001,6 hPa 0,0 l/m 0 min 2 min 0 W/m 18,8 km/h (3 Bft)
04.05.2015 23:10 17,0 C 13,3 C 81 % 1001,6 hPa 0,0 l/m 0 min 2 min 0 W/m 16,7 km/h (3 Bft)
04.05.2015 23:12 16,9 C 13,3 C 81 % 1001,5 hPa 0,0 l/m 0 min 2 min 0 W/m 16,7 km/h (3 Bft)
04.05.2015 23:14 16,8 C 13,3 C 81 % 1001,5 hPa 0,0 l/m 0 min 2 min 0 W/m 18,8 km/h (3 Bft)
04.05.2015 23:16 16,8 C 13,3 C 82 % 1001,5 hPa 0,0 l/m 0 min 2 min 0 W/m 16,7 km/h (3 Bft)
04.05.2015 23:18 16,7 C 13,3 C 82 % 1001,4 hPa 0,0 l/m 0 min 2 min 0 W/m 20,9 km/h (4 Bft)
04.05.2015 23:20 16,7 C 13,3 C 83 % 1001,4 hPa 0,0 l/m 0 min 2 min 0 W/m 23,0 km/h (4 Bft)
04.05.2015 23:22 16,6 C 13,3 C 83 % 1001,3 hPa 0,0 l/m 0 min 2 min 0 W/m 20,9 km/h (4 Bft)
04.05.2015 23:24 16,6 C 12,8 C 83 % 1001,2 hPa 0,0 l/m 0 min 2 min 0 W/m 25,1 km/h (4 Bft)
04.05.2015 23:26 16,5 C 12,8 C 83 % 1001,2 hPa 0,0 l/m 0 min 2 min 0 W/m 20,9 km/h (4 Bft)
04.05.2015 23:28 16,4 C 12,8 C 84 % 1001,1 hPa 0,2 l/m 0 min 2 min 0 W/m 23,0 km/h (4 Bft)
04.05.2015 23:30 16,4 C 12,8 C 84 % 1001,0 hPa 0,0 l/m 0 min 2 min 0 W/m 25,1 km/h (4 Bft)
04.05.2015 23:32 16,4 C 12,8 C 84 % 1001,0 hPa 0,0 l/m 0 min 2 min 0 W/m 27,2 km/h (4 Bft)
04.05.2015 23:34 16,3 C 12,8 C 85 % 1001,0 hPa 0,2 l/m 0 min 2 min 0 W/m 20,9 km/h (4 Bft)
04.05.2015 23:36 16,3 C 12,8 C 85 % 1001,0 hPa 0,0 l/m 0 min 2 min 0 W/m 23,0 km/h (4 Bft)
04.05.2015 23:38 16,3 C 12,8 C 86 % 1001,0 hPa 0,2 l/m 0 min 2 min 0 W/m 18,8 km/h (3 Bft)
04.05.2015 23:40 16,2 C 12,8 C 86 % 1000,9 hPa 0,2 l/m 0 min 2 min 0 W/m 23,0 km/h (4 Bft)
04.05.2015 23:42 16,2 C 12,8 C 86 % 1001,0 hPa 0,0 l/m 0 min 2 min 0 W/m 18,8 km/h (3 Bft)
04.05.2015 23:44 16,1 C 12,8 C 87 % 1000,9 hPa 0,6 l/m 0 min 2 min 0 W/m 20,9 km/h (4 Bft)
04.05.2015 23:46 16,0 C 12,8 C 87 % 1000,8 hPa 0,4 l/m 0 min 2 min 0 W/m 29,3 km/h (5 Bft)
04.05.2015 23:48 15,9 C 12,8 C 88 % 1000,5 hPa 0,6 l/m 0 min 2 min 0 W/m 29,3 km/h (5 Bft)
04.05.2015 23:50 15,9 C 12,8 C 88 % 1000,1 hPa 0,2 l/m 0 min 2 min 0 W/m 20,9 km/h (4 Bft)
04.05.2015 23:52 15,8 C 12,8 C 89 % 1000,1 hPa 0,0 l/m 0 min 2 min 0 W/m 25,1 km/h (4 Bft)
04.05.2015 23:54 15,7 C 12,8 C 89 % 1000,1 hPa 0,0 l/m 0 min 0 min 0 W/m 16,7 km/h (3 Bft)
04.05.2015 23:56 15,7 C 12,8 C 89 % 1000,1 hPa 0,0 l/m 0 min 0 min 0 W/m 18,8 km/h (3 Bft)
04.05.2015 23:58 15,6 C 12,8 C 90 % 1000,0 hPa 0,0 l/m 0 min 0 min 0 W/m 18,8 km/h (3 Bft)
_ Min-Zeit 07:20 04:24 16:24 23:58 - - - - 01:20
Minimum _ 13,0 C 11,1 C 56 % 1000,0 hPa - - - - 4,2 km/h (1 Bft)
_ Max-Zeit 16:58 14:54 06:44 11:32 23:44 07:16 04:40 12:36 07:44
Maximum _ 22,9 C 18,9 C 97 % 1009,0 hPa 0,6 l/m 2 min 2 min 1026 W/m 33,5 km/h
W-SW (5 Bft)
Durchschnitt _ 17,0 C 14,1 C 80 % 1006,0 hPa #3,2 l/m #7:48 h #2:24 h 321 W/m 14,3 km/h (3 Bft)
© 2015 W. Hausmann